<?xml version="1.0" encoding="UTF-8" standalone="no" ?>
<gpx xmlns="http://www.topografix.com/GPX/1/1" xmlns:xsi="http://www.w3.org/2001/XMLSchema-instance" xsi:schemaLocation="http://www.topografix.com/GPX/1/1 http://www.topografix.com/GPX/1/1/gpx.xsd" version="1.1" creator="VisuGPX - https://www.visugpx.com">
  <metadata>
    <name>Autour de Murviel-lès-Montpelliers</name>
    <desc><![CDATA[Terrain accessible avec passage aux ruines romaines]]></desc>
  </metadata>
  <trk>
    <name><![CDATA[Rando Murviel-les-Montpelliers du 15-11-15]]></name>
    <trkseg>
      <trkpt lat="43.61878" lon="3.74126">
        <ele>171.4</ele>
        <time>2015-11-15T13:35:28Z</time>
      </trkpt>
      <trkpt lat="43.61878" lon="3.74125">
        <ele>167.89</ele>
        <time>2015-11-15T13:35:39Z</time>
      </trkpt>
      <trkpt lat="43.61878" lon="3.74125">
        <ele>167.77</ele>
        <time>2015-11-15T13:35:40Z</time>
      </trkpt>
      <trkpt lat="43.61879" lon="3.74125">
        <ele>174.87</ele>
        <time>2015-11-15T13:35:41Z</time>
      </trkpt>
      <trkpt lat="43.61879" lon="3.74125">
        <ele>172.15</ele>
        <time>2015-11-15T13:35:42Z</time>
      </trkpt>
      <trkpt lat="43.6188" lon="3.74129">
        <ele>170.64</ele>
        <time>2015-11-15T13:36:04Z</time>
      </trkpt>
      <trkpt lat="43.61879" lon="3.74128">
        <ele>170.46</ele>
        <time>2015-11-15T13:36:25Z</time>
      </trkpt>
      <trkpt lat="43.61881" lon="3.74127">
        <ele>169.57</ele>
        <time>2015-11-15T13:36:45Z</time>
      </trkpt>
      <trkpt lat="43.61884" lon="3.74125">
        <ele>169.42</ele>
        <time>2015-11-15T13:37:04Z</time>
      </trkpt>
      <trkpt lat="43.61881" lon="3.74124">
        <ele>169.71</ele>
        <time>2015-11-15T13:37:31Z</time>
      </trkpt>
      <trkpt lat="43.61881" lon="3.74122">
        <ele>169.42</ele>
        <time>2015-11-15T13:37:51Z</time>
      </trkpt>
      <trkpt lat="43.61881" lon="3.74122">
        <ele>168.26</ele>
        <time>2015-11-15T13:38:31Z</time>
      </trkpt>
      <trkpt lat="43.61883" lon="3.74123">
        <ele>168.79</ele>
        <time>2015-11-15T13:38:47Z</time>
      </trkpt>
      <trkpt lat="43.61888" lon="3.74119">
        <ele>167.34</ele>
        <time>2015-11-15T13:39:07Z</time>
      </trkpt>
      <trkpt lat="43.61895" lon="3.74109">
        <ele>166.57</ele>
        <time>2015-11-15T13:39:24Z</time>
      </trkpt>
      <trkpt lat="43.61898" lon="3.74099">
        <ele>166.66</ele>
        <time>2015-11-15T13:39:40Z</time>
      </trkpt>
      <trkpt lat="43.61897" lon="3.74086">
        <ele>167.41</ele>
        <time>2015-11-15T13:39:49Z</time>
      </trkpt>
      <trkpt lat="43.61894" lon="3.74064">
        <ele>168.45</ele>
        <time>2015-11-15T13:40:05Z</time>
      </trkpt>
      <trkpt lat="43.6189" lon="3.74038">
        <ele>170.28</ele>
        <time>2015-11-15T13:40:28Z</time>
      </trkpt>
      <trkpt lat="43.6189" lon="3.74018">
        <ele>171.72</ele>
        <time>2015-11-15T13:40:47Z</time>
      </trkpt>
      <trkpt lat="43.61888" lon="3.73991">
        <ele>173.53</ele>
        <time>2015-11-15T13:41:11Z</time>
      </trkpt>
      <trkpt lat="43.61886" lon="3.73971">
        <ele>174.97</ele>
        <time>2015-11-15T13:41:28Z</time>
      </trkpt>
      <trkpt lat="43.61882" lon="3.73951">
        <ele>175.99</ele>
        <time>2015-11-15T13:41:47Z</time>
      </trkpt>
      <trkpt lat="43.61875" lon="3.73932">
        <ele>177.99</ele>
        <time>2015-11-15T13:42:08Z</time>
      </trkpt>
      <trkpt lat="43.61867" lon="3.7391">
        <ele>180.4</ele>
        <time>2015-11-15T13:42:30Z</time>
      </trkpt>
      <trkpt lat="43.61859" lon="3.73883">
        <ele>181.2</ele>
        <time>2015-11-15T13:42:54Z</time>
      </trkpt>
      <trkpt lat="43.61858" lon="3.73862">
        <ele>181.54</ele>
        <time>2015-11-15T13:43:11Z</time>
      </trkpt>
      <trkpt lat="43.61859" lon="3.73843">
        <ele>181.64</ele>
        <time>2015-11-15T13:43:25Z</time>
      </trkpt>
      <trkpt lat="43.61858" lon="3.73823">
        <ele>180.89</ele>
        <time>2015-11-15T13:43:40Z</time>
      </trkpt>
      <trkpt lat="43.61857" lon="3.73796">
        <ele>181.58</ele>
        <time>2015-11-15T13:44:00Z</time>
      </trkpt>
      <trkpt lat="43.61854" lon="3.73766">
        <ele>183.13</ele>
        <time>2015-11-15T13:44:21Z</time>
      </trkpt>
      <trkpt lat="43.61852" lon="3.73743">
        <ele>182.88</ele>
        <time>2015-11-15T13:44:37Z</time>
      </trkpt>
      <trkpt lat="43.61853" lon="3.73713">
        <ele>183.75</ele>
        <time>2015-11-15T13:44:58Z</time>
      </trkpt>
      <trkpt lat="43.61851" lon="3.7369">
        <ele>184.32</ele>
        <time>2015-11-15T13:45:14Z</time>
      </trkpt>
      <trkpt lat="43.61847" lon="3.7367">
        <ele>185.13</ele>
        <time>2015-11-15T13:45:29Z</time>
      </trkpt>
      <trkpt lat="43.61843" lon="3.73644">
        <ele>185.29</ele>
        <time>2015-11-15T13:45:46Z</time>
      </trkpt>
      <trkpt lat="43.61838" lon="3.73616">
        <ele>186.24</ele>
        <time>2015-11-15T13:46:06Z</time>
      </trkpt>
      <trkpt lat="43.61834" lon="3.73596">
        <ele>187.99</ele>
        <time>2015-11-15T13:46:22Z</time>
      </trkpt>
      <trkpt lat="43.61829" lon="3.73574">
        <ele>188.81</ele>
        <time>2015-11-15T13:46:39Z</time>
      </trkpt>
      <trkpt lat="43.61828" lon="3.73544">
        <ele>189.55</ele>
        <time>2015-11-15T13:46:59Z</time>
      </trkpt>
      <trkpt lat="43.61828" lon="3.73518">
        <ele>190.04</ele>
        <time>2015-11-15T13:47:16Z</time>
      </trkpt>
      <trkpt lat="43.61827" lon="3.73492">
        <ele>189.91</ele>
        <time>2015-11-15T13:47:33Z</time>
      </trkpt>
      <trkpt lat="43.61829" lon="3.73472">
        <ele>189.17</ele>
        <time>2015-11-15T13:47:48Z</time>
      </trkpt>
      <trkpt lat="43.61832" lon="3.73461">
        <ele>188.12</ele>
        <time>2015-11-15T13:48:06Z</time>
      </trkpt>
      <trkpt lat="43.61833" lon="3.73463">
        <ele>188.43</ele>
        <time>2015-11-15T13:48:28Z</time>
      </trkpt>
      <trkpt lat="43.61832" lon="3.73468">
        <ele>187.86</ele>
        <time>2015-11-15T13:48:54Z</time>
      </trkpt>
      <trkpt lat="43.61828" lon="3.73494">
        <ele>188.67</ele>
        <time>2015-11-15T13:49:17Z</time>
      </trkpt>
      <trkpt lat="43.61827" lon="3.73506">
        <ele>188.97</ele>
        <time>2015-11-15T13:49:25Z</time>
      </trkpt>
      <trkpt lat="43.61828" lon="3.73534">
        <ele>188.82</ele>
        <time>2015-11-15T13:49:44Z</time>
      </trkpt>
      <trkpt lat="43.61829" lon="3.73563">
        <ele>187.78</ele>
        <time>2015-11-15T13:50:04Z</time>
      </trkpt>
      <trkpt lat="43.61834" lon="3.73597">
        <ele>185.9</ele>
        <time>2015-11-15T13:50:27Z</time>
      </trkpt>
      <trkpt lat="43.6184" lon="3.73626">
        <ele>184.28</ele>
        <time>2015-11-15T13:50:47Z</time>
      </trkpt>
      <trkpt lat="43.61846" lon="3.73656">
        <ele>183.09</ele>
        <time>2015-11-15T13:51:09Z</time>
      </trkpt>
      <trkpt lat="43.61848" lon="3.73666">
        <ele>182.76</ele>
        <time>2015-11-15T13:51:18Z</time>
      </trkpt>
      <trkpt lat="43.61855" lon="3.73687">
        <ele>181.12</ele>
        <time>2015-11-15T13:51:40Z</time>
      </trkpt>
      <trkpt lat="43.61858" lon="3.73721">
        <ele>180.13</ele>
        <time>2015-11-15T13:52:04Z</time>
      </trkpt>
      <trkpt lat="43.61858" lon="3.73723">
        <ele>179.76</ele>
        <time>2015-11-15T13:52:05Z</time>
      </trkpt>
      <trkpt lat="43.61858" lon="3.73733">
        <ele>179.34</ele>
        <time>2015-11-15T13:52:12Z</time>
      </trkpt>
      <trkpt lat="43.61858" lon="3.73763">
        <ele>178.6</ele>
        <time>2015-11-15T13:52:30Z</time>
      </trkpt>
      <trkpt lat="43.61858" lon="3.73775">
        <ele>178.78</ele>
        <time>2015-11-15T13:52:36Z</time>
      </trkpt>
      <trkpt lat="43.61858" lon="3.73777">
        <ele>178.72</ele>
        <time>2015-11-15T13:52:37Z</time>
      </trkpt>
      <trkpt lat="43.6186" lon="3.73811">
        <ele>177.11</ele>
        <time>2015-11-15T13:52:56Z</time>
      </trkpt>
      <trkpt lat="43.6186" lon="3.73845">
        <ele>176.55</ele>
        <time>2015-11-15T13:53:15Z</time>
      </trkpt>
      <trkpt lat="43.6186" lon="3.73874">
        <ele>176.41</ele>
        <time>2015-11-15T13:53:32Z</time>
      </trkpt>
      <trkpt lat="43.61862" lon="3.73894">
        <ele>174.76</ele>
        <time>2015-11-15T13:53:47Z</time>
      </trkpt>
      <trkpt lat="43.61872" lon="3.7392">
        <ele>173.41</ele>
        <time>2015-11-15T13:54:07Z</time>
      </trkpt>
      <trkpt lat="43.61873" lon="3.73921">
        <ele>173.18</ele>
        <time>2015-11-15T13:54:08Z</time>
      </trkpt>
      <trkpt lat="43.61873" lon="3.73923">
        <ele>172.37</ele>
        <time>2015-11-15T13:54:09Z</time>
      </trkpt>
      <trkpt lat="43.61882" lon="3.73944">
        <ele>170.51</ele>
        <time>2015-11-15T13:54:25Z</time>
      </trkpt>
      <trkpt lat="43.61883" lon="3.73946">
        <ele>170.39</ele>
        <time>2015-11-15T13:54:26Z</time>
      </trkpt>
      <trkpt lat="43.61883" lon="3.73947">
        <ele>170.16</ele>
        <time>2015-11-15T13:54:27Z</time>
      </trkpt>
      <trkpt lat="43.61884" lon="3.73948">
        <ele>170.26</ele>
        <time>2015-11-15T13:54:28Z</time>
      </trkpt>
      <trkpt lat="43.61884" lon="3.73951">
        <ele>169.81</ele>
        <time>2015-11-15T13:54:29Z</time>
      </trkpt>
      <trkpt lat="43.61884" lon="3.73953">
        <ele>169.83</ele>
        <time>2015-11-15T13:54:30Z</time>
      </trkpt>
      <trkpt lat="43.61891" lon="3.73978">
        <ele>167.31</ele>
        <time>2015-11-15T13:54:47Z</time>
      </trkpt>
      <trkpt lat="43.61892" lon="3.74001">
        <ele>165.11</ele>
        <time>2015-11-15T13:55:03Z</time>
      </trkpt>
      <trkpt lat="43.61894" lon="3.74033">
        <ele>162.41</ele>
        <time>2015-11-15T13:55:25Z</time>
      </trkpt>
      <trkpt lat="43.61892" lon="3.74052">
        <ele>160.9</ele>
        <time>2015-11-15T13:55:38Z</time>
      </trkpt>
      <trkpt lat="43.61881" lon="3.74081">
        <ele>160.42</ele>
        <time>2015-11-15T13:55:52Z</time>
      </trkpt>
      <trkpt lat="43.61874" lon="3.74089">
        <ele>159.7</ele>
        <time>2015-11-15T13:56:00Z</time>
      </trkpt>
      <trkpt lat="43.61873" lon="3.74089">
        <ele>159.68</ele>
        <time>2015-11-15T13:56:01Z</time>
      </trkpt>
      <trkpt lat="43.61872" lon="3.74089">
        <ele>159.58</ele>
        <time>2015-11-15T13:56:02Z</time>
      </trkpt>
      <trkpt lat="43.61854" lon="3.74079">
        <ele>158.92</ele>
        <time>2015-11-15T13:56:19Z</time>
      </trkpt>
      <trkpt lat="43.61839" lon="3.74057">
        <ele>158.33</ele>
        <time>2015-11-15T13:56:38Z</time>
      </trkpt>
      <trkpt lat="43.61838" lon="3.74055">
        <ele>158.67</ele>
        <time>2015-11-15T13:56:39Z</time>
      </trkpt>
      <trkpt lat="43.61824" lon="3.74034">
        <ele>158.55</ele>
        <time>2015-11-15T13:56:58Z</time>
      </trkpt>
      <trkpt lat="43.61814" lon="3.74017">
        <ele>158.15</ele>
        <time>2015-11-15T13:57:14Z</time>
      </trkpt>
      <trkpt lat="43.61793" lon="3.73994">
        <ele>157.07</ele>
        <time>2015-11-15T13:57:34Z</time>
      </trkpt>
      <trkpt lat="43.61787" lon="3.73988">
        <ele>157.32</ele>
        <time>2015-11-15T13:57:41Z</time>
      </trkpt>
      <trkpt lat="43.61774" lon="3.73978">
        <ele>156.83</ele>
        <time>2015-11-15T13:57:56Z</time>
      </trkpt>
      <trkpt lat="43.61768" lon="3.73971">
        <ele>156.39</ele>
        <time>2015-11-15T13:58:03Z</time>
      </trkpt>
      <trkpt lat="43.61759" lon="3.73948">
        <ele>155.57</ele>
        <time>2015-11-15T13:58:21Z</time>
      </trkpt>
      <trkpt lat="43.6176" lon="3.73916">
        <ele>155.27</ele>
        <time>2015-11-15T13:58:44Z</time>
      </trkpt>
      <trkpt lat="43.61763" lon="3.73876">
        <ele>154.28</ele>
        <time>2015-11-15T13:59:06Z</time>
      </trkpt>
      <trkpt lat="43.61762" lon="3.73859">
        <ele>154.09</ele>
        <time>2015-11-15T13:59:15Z</time>
      </trkpt>
      <trkpt lat="43.61762" lon="3.73856">
        <ele>153.57</ele>
        <time>2015-11-15T13:59:16Z</time>
      </trkpt>
      <trkpt lat="43.61761" lon="3.73855">
        <ele>153.78</ele>
        <time>2015-11-15T13:59:17Z</time>
      </trkpt>
      <trkpt lat="43.6176" lon="3.73844">
        <ele>153.76</ele>
        <time>2015-11-15T13:59:23Z</time>
      </trkpt>
      <trkpt lat="43.61759" lon="3.73841">
        <ele>153.77</ele>
        <time>2015-11-15T13:59:24Z</time>
      </trkpt>
      <trkpt lat="43.61759" lon="3.73838">
        <ele>153.85</ele>
        <time>2015-11-15T13:59:25Z</time>
      </trkpt>
      <trkpt lat="43.61758" lon="3.73818">
        <ele>153.36</ele>
        <time>2015-11-15T13:59:38Z</time>
      </trkpt>
      <trkpt lat="43.61748" lon="3.73799">
        <ele>152.82</ele>
        <time>2015-11-15T13:59:59Z</time>
      </trkpt>
      <trkpt lat="43.61739" lon="3.73788">
        <ele>152.86</ele>
        <time>2015-11-15T14:00:10Z</time>
      </trkpt>
      <trkpt lat="43.61721" lon="3.73773">
        <ele>152.22</ele>
        <time>2015-11-15T14:00:29Z</time>
      </trkpt>
      <trkpt lat="43.61723" lon="3.73769">
        <ele>152.32</ele>
        <time>2015-11-15T14:00:50Z</time>
      </trkpt>
      <trkpt lat="43.61725" lon="3.73767">
        <ele>152.17</ele>
        <time>2015-11-15T14:01:13Z</time>
      </trkpt>
      <trkpt lat="43.61727" lon="3.73746">
        <ele>151.49</ele>
        <time>2015-11-15T14:01:31Z</time>
      </trkpt>
      <trkpt lat="43.61729" lon="3.73734">
        <ele>150.76</ele>
        <time>2015-11-15T14:01:43Z</time>
      </trkpt>
      <trkpt lat="43.6173" lon="3.73725">
        <ele>150.61</ele>
        <time>2015-11-15T14:01:49Z</time>
      </trkpt>
      <trkpt lat="43.61733" lon="3.73716">
        <ele>149.72</ele>
        <time>2015-11-15T14:01:56Z</time>
      </trkpt>
      <trkpt lat="43.61734" lon="3.73704">
        <ele>149.71</ele>
        <time>2015-11-15T14:02:04Z</time>
      </trkpt>
      <trkpt lat="43.61737" lon="3.73687">
        <ele>148.82</ele>
        <time>2015-11-15T14:02:15Z</time>
      </trkpt>
      <trkpt lat="43.61737" lon="3.73685">
        <ele>148.65</ele>
        <time>2015-11-15T14:02:16Z</time>
      </trkpt>
      <trkpt lat="43.61737" lon="3.73683">
        <ele>148.67</ele>
        <time>2015-11-15T14:02:17Z</time>
      </trkpt>
      <trkpt lat="43.61737" lon="3.73681">
        <ele>148.67</ele>
        <time>2015-11-15T14:02:18Z</time>
      </trkpt>
      <trkpt lat="43.61728" lon="3.73657">
        <ele>147.15</ele>
        <time>2015-11-15T14:02:34Z</time>
      </trkpt>
      <trkpt lat="43.61711" lon="3.73639">
        <ele>146.97</ele>
        <time>2015-11-15T14:02:53Z</time>
      </trkpt>
      <trkpt lat="43.6171" lon="3.73638">
        <ele>147.03</ele>
        <time>2015-11-15T14:02:54Z</time>
      </trkpt>
      <trkpt lat="43.61709" lon="3.73637">
        <ele>147.55</ele>
        <time>2015-11-15T14:02:55Z</time>
      </trkpt>
      <trkpt lat="43.61691" lon="3.73634">
        <ele>146.95</ele>
        <time>2015-11-15T14:03:10Z</time>
      </trkpt>
      <trkpt lat="43.61672" lon="3.7363">
        <ele>147.34</ele>
        <time>2015-11-15T14:03:26Z</time>
      </trkpt>
      <trkpt lat="43.61647" lon="3.73622">
        <ele>148.38</ele>
        <time>2015-11-15T14:03:49Z</time>
      </trkpt>
      <trkpt lat="43.61625" lon="3.73614">
        <ele>149.12</ele>
        <time>2015-11-15T14:04:10Z</time>
      </trkpt>
      <trkpt lat="43.61605" lon="3.73605">
        <ele>149.04</ele>
        <time>2015-11-15T14:04:29Z</time>
      </trkpt>
      <trkpt lat="43.61604" lon="3.73604">
        <ele>149.04</ele>
        <time>2015-11-15T14:04:30Z</time>
      </trkpt>
      <trkpt lat="43.61594" lon="3.73597">
        <ele>149.29</ele>
        <time>2015-11-15T14:04:43Z</time>
      </trkpt>
      <trkpt lat="43.61589" lon="3.73591">
        <ele>149.05</ele>
        <time>2015-11-15T14:05:02Z</time>
      </trkpt>
      <trkpt lat="43.61588" lon="3.73588">
        <ele>148.99</ele>
        <time>2015-11-15T14:05:04Z</time>
      </trkpt>
      <trkpt lat="43.61588" lon="3.73587">
        <ele>149.19</ele>
        <time>2015-11-15T14:05:05Z</time>
      </trkpt>
      <trkpt lat="43.61588" lon="3.73585">
        <ele>149.16</ele>
        <time>2015-11-15T14:05:06Z</time>
      </trkpt>
      <trkpt lat="43.61587" lon="3.73583">
        <ele>149.38</ele>
        <time>2015-11-15T14:05:07Z</time>
      </trkpt>
      <trkpt lat="43.61588" lon="3.73558">
        <ele>150.21</ele>
        <time>2015-11-15T14:05:25Z</time>
      </trkpt>
      <trkpt lat="43.61598" lon="3.7354">
        <ele>150.53</ele>
        <time>2015-11-15T14:05:41Z</time>
      </trkpt>
      <trkpt lat="43.61603" lon="3.73535">
        <ele>150.5</ele>
        <time>2015-11-15T14:05:46Z</time>
      </trkpt>
      <trkpt lat="43.61604" lon="3.73534">
        <ele>150.14</ele>
        <time>2015-11-15T14:05:47Z</time>
      </trkpt>
      <trkpt lat="43.61605" lon="3.73532">
        <ele>150.32</ele>
        <time>2015-11-15T14:05:48Z</time>
      </trkpt>
      <trkpt lat="43.61605" lon="3.73531">
        <ele>150.23</ele>
        <time>2015-11-15T14:05:49Z</time>
      </trkpt>
      <trkpt lat="43.61606" lon="3.7353">
        <ele>150.04</ele>
        <time>2015-11-15T14:05:50Z</time>
      </trkpt>
      <trkpt lat="43.61622" lon="3.73496">
        <ele>149.13</ele>
        <time>2015-11-15T14:06:15Z</time>
      </trkpt>
      <trkpt lat="43.61646" lon="3.73473">
        <ele>149.27</ele>
        <time>2015-11-15T14:06:39Z</time>
      </trkpt>
      <trkpt lat="43.61657" lon="3.73469">
        <ele>149.1</ele>
        <time>2015-11-15T14:06:49Z</time>
      </trkpt>
      <trkpt lat="43.61659" lon="3.73467">
        <ele>149.22</ele>
        <time>2015-11-15T14:06:51Z</time>
      </trkpt>
      <trkpt lat="43.61679" lon="3.73447">
        <ele>150.87</ele>
        <time>2015-11-15T14:07:13Z</time>
      </trkpt>
      <trkpt lat="43.6169" lon="3.73428">
        <ele>149.67</ele>
        <time>2015-11-15T14:07:29Z</time>
      </trkpt>
      <trkpt lat="43.61703" lon="3.73411">
        <ele>149.45</ele>
        <time>2015-11-15T14:07:44Z</time>
      </trkpt>
      <trkpt lat="43.61709" lon="3.73389">
        <ele>149.67</ele>
        <time>2015-11-15T14:07:58Z</time>
      </trkpt>
      <trkpt lat="43.61708" lon="3.73388">
        <ele>149.63</ele>
        <time>2015-11-15T14:07:59Z</time>
      </trkpt>
      <trkpt lat="43.61708" lon="3.73386">
        <ele>149.67</ele>
        <time>2015-11-15T14:08:00Z</time>
      </trkpt>
      <trkpt lat="43.61707" lon="3.73385">
        <ele>149.84</ele>
        <time>2015-11-15T14:08:01Z</time>
      </trkpt>
      <trkpt lat="43.61707" lon="3.73383">
        <ele>149.74</ele>
        <time>2015-11-15T14:08:02Z</time>
      </trkpt>
      <trkpt lat="43.61688" lon="3.73369">
        <ele>149.76</ele>
        <time>2015-11-15T14:08:21Z</time>
      </trkpt>
      <trkpt lat="43.6167" lon="3.73349">
        <ele>150.33</ele>
        <time>2015-11-15T14:08:41Z</time>
      </trkpt>
      <trkpt lat="43.61668" lon="3.73343">
        <ele>150</ele>
        <time>2015-11-15T14:08:45Z</time>
      </trkpt>
      <trkpt lat="43.61667" lon="3.73341">
        <ele>150.2</ele>
        <time>2015-11-15T14:08:46Z</time>
      </trkpt>
      <trkpt lat="43.61667" lon="3.73339">
        <ele>150.71</ele>
        <time>2015-11-15T14:08:47Z</time>
      </trkpt>
      <trkpt lat="43.61667" lon="3.73321">
        <ele>149.91</ele>
        <time>2015-11-15T14:09:00Z</time>
      </trkpt>
      <trkpt lat="43.61666" lon="3.73299">
        <ele>150.88</ele>
        <time>2015-11-15T14:09:14Z</time>
      </trkpt>
      <trkpt lat="43.61665" lon="3.73298">
        <ele>150.44</ele>
        <time>2015-11-15T14:09:15Z</time>
      </trkpt>
      <trkpt lat="43.61665" lon="3.73296">
        <ele>150.41</ele>
        <time>2015-11-15T14:09:16Z</time>
      </trkpt>
      <trkpt lat="43.61665" lon="3.73294">
        <ele>150.29</ele>
        <time>2015-11-15T14:09:17Z</time>
      </trkpt>
      <trkpt lat="43.61668" lon="3.73278">
        <ele>150.73</ele>
        <time>2015-11-15T14:09:28Z</time>
      </trkpt>
      <trkpt lat="43.61668" lon="3.73277">
        <ele>150.61</ele>
        <time>2015-11-15T14:09:29Z</time>
      </trkpt>
      <trkpt lat="43.61669" lon="3.73274">
        <ele>150.73</ele>
        <time>2015-11-15T14:09:31Z</time>
      </trkpt>
      <trkpt lat="43.6167" lon="3.73272">
        <ele>150.91</ele>
        <time>2015-11-15T14:09:32Z</time>
      </trkpt>
      <trkpt lat="43.61673" lon="3.7326">
        <ele>150.63</ele>
        <time>2015-11-15T14:09:40Z</time>
      </trkpt>
      <trkpt lat="43.61673" lon="3.73258">
        <ele>150.94</ele>
        <time>2015-11-15T14:09:41Z</time>
      </trkpt>
      <trkpt lat="43.61674" lon="3.73257">
        <ele>151.04</ele>
        <time>2015-11-15T14:09:42Z</time>
      </trkpt>
      <trkpt lat="43.61677" lon="3.73242">
        <ele>150.71</ele>
        <time>2015-11-15T14:09:52Z</time>
      </trkpt>
      <trkpt lat="43.61679" lon="3.73238">
        <ele>151.33</ele>
        <time>2015-11-15T14:09:55Z</time>
      </trkpt>
      <trkpt lat="43.61679" lon="3.73236">
        <ele>151.16</ele>
        <time>2015-11-15T14:09:56Z</time>
      </trkpt>
      <trkpt lat="43.61687" lon="3.73222">
        <ele>151.37</ele>
        <time>2015-11-15T14:10:06Z</time>
      </trkpt>
      <trkpt lat="43.61697" lon="3.73198">
        <ele>151.16</ele>
        <time>2015-11-15T14:10:23Z</time>
      </trkpt>
      <trkpt lat="43.61698" lon="3.73195">
        <ele>150.81</ele>
        <time>2015-11-15T14:10:25Z</time>
      </trkpt>
      <trkpt lat="43.61698" lon="3.73193">
        <ele>150.89</ele>
        <time>2015-11-15T14:10:26Z</time>
      </trkpt>
      <trkpt lat="43.61699" lon="3.73192">
        <ele>150.9</ele>
        <time>2015-11-15T14:10:27Z</time>
      </trkpt>
      <trkpt lat="43.61699" lon="3.7319">
        <ele>151.68</ele>
        <time>2015-11-15T14:10:28Z</time>
      </trkpt>
      <trkpt lat="43.61701" lon="3.73174">
        <ele>152.01</ele>
        <time>2015-11-15T14:10:39Z</time>
      </trkpt>
      <trkpt lat="43.617" lon="3.73171">
        <ele>151.52</ele>
        <time>2015-11-15T14:10:42Z</time>
      </trkpt>
      <trkpt lat="43.61699" lon="3.7317">
        <ele>152.01</ele>
        <time>2015-11-15T14:10:43Z</time>
      </trkpt>
      <trkpt lat="43.61683" lon="3.73171">
        <ele>152.02</ele>
        <time>2015-11-15T14:10:58Z</time>
      </trkpt>
      <trkpt lat="43.61682" lon="3.73171">
        <ele>152.13</ele>
        <time>2015-11-15T14:10:59Z</time>
      </trkpt>
      <trkpt lat="43.61681" lon="3.73172">
        <ele>152.53</ele>
        <time>2015-11-15T14:11:00Z</time>
      </trkpt>
      <trkpt lat="43.6168" lon="3.73173">
        <ele>152.06</ele>
        <time>2015-11-15T14:11:01Z</time>
      </trkpt>
      <trkpt lat="43.61678" lon="3.73174">
        <ele>152.37</ele>
        <time>2015-11-15T14:11:03Z</time>
      </trkpt>
      <trkpt lat="43.61668" lon="3.73182">
        <ele>152.65</ele>
        <time>2015-11-15T14:11:15Z</time>
      </trkpt>
      <trkpt lat="43.61649" lon="3.73197">
        <ele>154.18</ele>
        <time>2015-11-15T14:11:36Z</time>
      </trkpt>
      <trkpt lat="43.61636" lon="3.73212">
        <ele>154.99</ele>
        <time>2015-11-15T14:11:52Z</time>
      </trkpt>
      <trkpt lat="43.61635" lon="3.73214">
        <ele>154.72</ele>
        <time>2015-11-15T14:11:53Z</time>
      </trkpt>
      <trkpt lat="43.61633" lon="3.73215">
        <ele>154.86</ele>
        <time>2015-11-15T14:11:54Z</time>
      </trkpt>
      <trkpt lat="43.61621" lon="3.73225">
        <ele>155.93</ele>
        <time>2015-11-15T14:12:07Z</time>
      </trkpt>
      <trkpt lat="43.6161" lon="3.73235">
        <ele>156.06</ele>
        <time>2015-11-15T14:12:20Z</time>
      </trkpt>
      <trkpt lat="43.61596" lon="3.73249">
        <ele>157.6</ele>
        <time>2015-11-15T14:12:38Z</time>
      </trkpt>
      <trkpt lat="43.61594" lon="3.73252">
        <ele>157.85</ele>
        <time>2015-11-15T14:12:41Z</time>
      </trkpt>
      <trkpt lat="43.61582" lon="3.73265">
        <ele>159.54</ele>
        <time>2015-11-15T14:12:56Z</time>
      </trkpt>
      <trkpt lat="43.61581" lon="3.73267">
        <ele>159.08</ele>
        <time>2015-11-15T14:12:57Z</time>
      </trkpt>
      <trkpt lat="43.61574" lon="3.73272">
        <ele>159.94</ele>
        <time>2015-11-15T14:13:05Z</time>
      </trkpt>
      <trkpt lat="43.6156" lon="3.73278">
        <ele>160.88</ele>
        <time>2015-11-15T14:13:18Z</time>
      </trkpt>
      <trkpt lat="43.61558" lon="3.73278">
        <ele>160.99</ele>
        <time>2015-11-15T14:13:20Z</time>
      </trkpt>
      <trkpt lat="43.61551" lon="3.73273">
        <ele>162.12</ele>
        <time>2015-11-15T14:13:27Z</time>
      </trkpt>
      <trkpt lat="43.61543" lon="3.73263">
        <ele>161.97</ele>
        <time>2015-11-15T14:13:36Z</time>
      </trkpt>
      <trkpt lat="43.61536" lon="3.73245">
        <ele>163.53</ele>
        <time>2015-11-15T14:13:50Z</time>
      </trkpt>
      <trkpt lat="43.61535" lon="3.73223">
        <ele>164.58</ele>
        <time>2015-11-15T14:14:06Z</time>
      </trkpt>
      <trkpt lat="43.61534" lon="3.73213">
        <ele>165.37</ele>
        <time>2015-11-15T14:14:13Z</time>
      </trkpt>
      <trkpt lat="43.61537" lon="3.73198">
        <ele>166.08</ele>
        <time>2015-11-15T14:14:24Z</time>
      </trkpt>
      <trkpt lat="43.61537" lon="3.73196">
        <ele>166.21</ele>
        <time>2015-11-15T14:14:25Z</time>
      </trkpt>
      <trkpt lat="43.61547" lon="3.7318">
        <ele>168.37</ele>
        <time>2015-11-15T14:14:40Z</time>
      </trkpt>
      <trkpt lat="43.6156" lon="3.73171">
        <ele>168.88</ele>
        <time>2015-11-15T14:14:54Z</time>
      </trkpt>
      <trkpt lat="43.61563" lon="3.73169">
        <ele>169.57</ele>
        <time>2015-11-15T14:14:58Z</time>
      </trkpt>
      <trkpt lat="43.61574" lon="3.73165">
        <ele>171.15</ele>
        <time>2015-11-15T14:15:11Z</time>
      </trkpt>
      <trkpt lat="43.6158" lon="3.73162">
        <ele>171.34</ele>
        <time>2015-11-15T14:15:16Z</time>
      </trkpt>
      <trkpt lat="43.61586" lon="3.73148">
        <ele>171.03</ele>
        <time>2015-11-15T14:15:29Z</time>
      </trkpt>
      <trkpt lat="43.61589" lon="3.73142">
        <ele>171.61</ele>
        <time>2015-11-15T14:15:34Z</time>
      </trkpt>
      <trkpt lat="43.61595" lon="3.73139">
        <ele>171.72</ele>
        <time>2015-11-15T14:15:39Z</time>
      </trkpt>
      <trkpt lat="43.61607" lon="3.7313">
        <ele>171.92</ele>
        <time>2015-11-15T14:15:49Z</time>
      </trkpt>
      <trkpt lat="43.61608" lon="3.73129">
        <ele>171.43</ele>
        <time>2015-11-15T14:15:50Z</time>
      </trkpt>
      <trkpt lat="43.61609" lon="3.73127">
        <ele>171.86</ele>
        <time>2015-11-15T14:15:51Z</time>
      </trkpt>
      <trkpt lat="43.61612" lon="3.73124">
        <ele>171.96</ele>
        <time>2015-11-15T14:15:54Z</time>
      </trkpt>
      <trkpt lat="43.61623" lon="3.73107">
        <ele>172.83</ele>
        <time>2015-11-15T14:16:08Z</time>
      </trkpt>
      <trkpt lat="43.61628" lon="3.73096">
        <ele>173.26</ele>
        <time>2015-11-15T14:16:17Z</time>
      </trkpt>
      <trkpt lat="43.61629" lon="3.73094">
        <ele>173.26</ele>
        <time>2015-11-15T14:16:18Z</time>
      </trkpt>
      <trkpt lat="43.61635" lon="3.73075">
        <ele>174.67</ele>
        <time>2015-11-15T14:16:33Z</time>
      </trkpt>
      <trkpt lat="43.61645" lon="3.73055">
        <ele>175.46</ele>
        <time>2015-11-15T14:16:48Z</time>
      </trkpt>
      <trkpt lat="43.61656" lon="3.7304">
        <ele>176.26</ele>
        <time>2015-11-15T14:17:01Z</time>
      </trkpt>
      <trkpt lat="43.61669" lon="3.73028">
        <ele>177.23</ele>
        <time>2015-11-15T14:17:14Z</time>
      </trkpt>
      <trkpt lat="43.61677" lon="3.73017">
        <ele>177.95</ele>
        <time>2015-11-15T14:17:25Z</time>
      </trkpt>
      <trkpt lat="43.61677" lon="3.73016">
        <ele>177.83</ele>
        <time>2015-11-15T14:17:26Z</time>
      </trkpt>
      <trkpt lat="43.61678" lon="3.73015">
        <ele>178.42</ele>
        <time>2015-11-15T14:17:27Z</time>
      </trkpt>
      <trkpt lat="43.61679" lon="3.73013">
        <ele>178.28</ele>
        <time>2015-11-15T14:17:28Z</time>
      </trkpt>
      <trkpt lat="43.61679" lon="3.73012">
        <ele>178.43</ele>
        <time>2015-11-15T14:17:29Z</time>
      </trkpt>
      <trkpt lat="43.6168" lon="3.73011">
        <ele>178.68</ele>
        <time>2015-11-15T14:17:30Z</time>
      </trkpt>
      <trkpt lat="43.6168" lon="3.7301">
        <ele>178.47</ele>
        <time>2015-11-15T14:17:31Z</time>
      </trkpt>
      <trkpt lat="43.61681" lon="3.73009">
        <ele>178.58</ele>
        <time>2015-11-15T14:17:32Z</time>
      </trkpt>
      <trkpt lat="43.61682" lon="3.73006">
        <ele>178.71</ele>
        <time>2015-11-15T14:17:34Z</time>
      </trkpt>
      <trkpt lat="43.61682" lon="3.73002">
        <ele>178.58</ele>
        <time>2015-11-15T14:17:37Z</time>
      </trkpt>
      <trkpt lat="43.61682" lon="3.73001">
        <ele>178.94</ele>
        <time>2015-11-15T14:17:38Z</time>
      </trkpt>
      <trkpt lat="43.61684" lon="3.72996">
        <ele>179.57</ele>
        <time>2015-11-15T14:17:42Z</time>
      </trkpt>
      <trkpt lat="43.6169" lon="3.72979">
        <ele>180.54</ele>
        <time>2015-11-15T14:17:54Z</time>
      </trkpt>
      <trkpt lat="43.61694" lon="3.72966">
        <ele>181.09</ele>
        <time>2015-11-15T14:18:07Z</time>
      </trkpt>
      <trkpt lat="43.61696" lon="3.72965">
        <ele>181.77</ele>
        <time>2015-11-15T14:18:24Z</time>
      </trkpt>
      <trkpt lat="43.61696" lon="3.72965">
        <ele>181.08</ele>
        <time>2015-11-15T14:18:54Z</time>
      </trkpt>
      <trkpt lat="43.61697" lon="3.72966">
        <ele>181.57</ele>
        <time>2015-11-15T14:19:14Z</time>
      </trkpt>
      <trkpt lat="43.61697" lon="3.72965">
        <ele>181.1</ele>
        <time>2015-11-15T14:19:37Z</time>
      </trkpt>
      <trkpt lat="43.61699" lon="3.72957">
        <ele>181.51</ele>
        <time>2015-11-15T14:19:58Z</time>
      </trkpt>
      <trkpt lat="43.61703" lon="3.72949">
        <ele>181.81</ele>
        <time>2015-11-15T14:20:06Z</time>
      </trkpt>
      <trkpt lat="43.61703" lon="3.72945">
        <ele>182.18</ele>
        <time>2015-11-15T14:20:09Z</time>
      </trkpt>
      <trkpt lat="43.61706" lon="3.72937">
        <ele>183.9</ele>
        <time>2015-11-15T14:20:17Z</time>
      </trkpt>
      <trkpt lat="43.61709" lon="3.72929">
        <ele>183.88</ele>
        <time>2015-11-15T14:20:24Z</time>
      </trkpt>
      <trkpt lat="43.61715" lon="3.72913">
        <ele>184.76</ele>
        <time>2015-11-15T14:20:38Z</time>
      </trkpt>
      <trkpt lat="43.61726" lon="3.72894">
        <ele>185.06</ele>
        <time>2015-11-15T14:20:56Z</time>
      </trkpt>
      <trkpt lat="43.61728" lon="3.7289">
        <ele>184.99</ele>
        <time>2015-11-15T14:20:59Z</time>
      </trkpt>
      <trkpt lat="43.61729" lon="3.72889">
        <ele>184.74</ele>
        <time>2015-11-15T14:21:00Z</time>
      </trkpt>
      <trkpt lat="43.6173" lon="3.72887">
        <ele>184.97</ele>
        <time>2015-11-15T14:21:01Z</time>
      </trkpt>
      <trkpt lat="43.61741" lon="3.7287">
        <ele>185.31</ele>
        <time>2015-11-15T14:21:16Z</time>
      </trkpt>
      <trkpt lat="43.61752" lon="3.72856">
        <ele>185.83</ele>
        <time>2015-11-15T14:21:30Z</time>
      </trkpt>
      <trkpt lat="43.61755" lon="3.72853">
        <ele>185.76</ele>
        <time>2015-11-15T14:21:33Z</time>
      </trkpt>
      <trkpt lat="43.61756" lon="3.72852">
        <ele>186.05</ele>
        <time>2015-11-15T14:21:34Z</time>
      </trkpt>
      <trkpt lat="43.61757" lon="3.72851">
        <ele>185.62</ele>
        <time>2015-11-15T14:21:35Z</time>
      </trkpt>
      <trkpt lat="43.61757" lon="3.7285">
        <ele>185.76</ele>
        <time>2015-11-15T14:21:36Z</time>
      </trkpt>
      <trkpt lat="43.61758" lon="3.72849">
        <ele>185.48</ele>
        <time>2015-11-15T14:21:37Z</time>
      </trkpt>
      <trkpt lat="43.61768" lon="3.72837">
        <ele>186.39</ele>
        <time>2015-11-15T14:21:49Z</time>
      </trkpt>
      <trkpt lat="43.61769" lon="3.7283">
        <ele>186.28</ele>
        <time>2015-11-15T14:21:55Z</time>
      </trkpt>
      <trkpt lat="43.61767" lon="3.72821">
        <ele>186.01</ele>
        <time>2015-11-15T14:22:01Z</time>
      </trkpt>
      <trkpt lat="43.6176" lon="3.72802">
        <ele>186.36</ele>
        <time>2015-11-15T14:22:15Z</time>
      </trkpt>
      <trkpt lat="43.61755" lon="3.72791">
        <ele>186.47</ele>
        <time>2015-11-15T14:22:22Z</time>
      </trkpt>
      <trkpt lat="43.61755" lon="3.7279">
        <ele>186.43</ele>
        <time>2015-11-15T14:22:23Z</time>
      </trkpt>
      <trkpt lat="43.61745" lon="3.7277">
        <ele>186.89</ele>
        <time>2015-11-15T14:22:39Z</time>
      </trkpt>
      <trkpt lat="43.61733" lon="3.72748">
        <ele>186.99</ele>
        <time>2015-11-15T14:22:55Z</time>
      </trkpt>
      <trkpt lat="43.61733" lon="3.72747">
        <ele>187.13</ele>
        <time>2015-11-15T14:22:56Z</time>
      </trkpt>
      <trkpt lat="43.61732" lon="3.72746">
        <ele>187.62</ele>
        <time>2015-11-15T14:22:57Z</time>
      </trkpt>
      <trkpt lat="43.61722" lon="3.72729">
        <ele>187.27</ele>
        <time>2015-11-15T14:23:10Z</time>
      </trkpt>
      <trkpt lat="43.61722" lon="3.72728">
        <ele>186.91</ele>
        <time>2015-11-15T14:23:11Z</time>
      </trkpt>
      <trkpt lat="43.61721" lon="3.72727">
        <ele>187.35</ele>
        <time>2015-11-15T14:23:12Z</time>
      </trkpt>
      <trkpt lat="43.6172" lon="3.72726">
        <ele>187.25</ele>
        <time>2015-11-15T14:23:13Z</time>
      </trkpt>
      <trkpt lat="43.61719" lon="3.72724">
        <ele>187.07</ele>
        <time>2015-11-15T14:23:14Z</time>
      </trkpt>
      <trkpt lat="43.61719" lon="3.72723">
        <ele>187.4</ele>
        <time>2015-11-15T14:23:15Z</time>
      </trkpt>
      <trkpt lat="43.61718" lon="3.72722">
        <ele>187.61</ele>
        <time>2015-11-15T14:23:16Z</time>
      </trkpt>
      <trkpt lat="43.61717" lon="3.72721">
        <ele>187.28</ele>
        <time>2015-11-15T14:23:17Z</time>
      </trkpt>
      <trkpt lat="43.61708" lon="3.72701">
        <ele>187.83</ele>
        <time>2015-11-15T14:23:32Z</time>
      </trkpt>
      <trkpt lat="43.61701" lon="3.72686">
        <ele>188.75</ele>
        <time>2015-11-15T14:23:43Z</time>
      </trkpt>
      <trkpt lat="43.61691" lon="3.72668">
        <ele>189.49</ele>
        <time>2015-11-15T14:23:57Z</time>
      </trkpt>
      <trkpt lat="43.61689" lon="3.72663">
        <ele>189.83</ele>
        <time>2015-11-15T14:24:00Z</time>
      </trkpt>
      <trkpt lat="43.61688" lon="3.72662">
        <ele>190.16</ele>
        <time>2015-11-15T14:24:01Z</time>
      </trkpt>
      <trkpt lat="43.61681" lon="3.72647">
        <ele>190.72</ele>
        <time>2015-11-15T14:24:13Z</time>
      </trkpt>
      <trkpt lat="43.61678" lon="3.7264">
        <ele>191.6</ele>
        <time>2015-11-15T14:24:19Z</time>
      </trkpt>
      <trkpt lat="43.61665" lon="3.72625">
        <ele>193.48</ele>
        <time>2015-11-15T14:24:35Z</time>
      </trkpt>
      <trkpt lat="43.61664" lon="3.72624">
        <ele>193.24</ele>
        <time>2015-11-15T14:24:37Z</time>
      </trkpt>
      <trkpt lat="43.61663" lon="3.72623">
        <ele>193.58</ele>
        <time>2015-11-15T14:24:38Z</time>
      </trkpt>
      <trkpt lat="43.61661" lon="3.72621">
        <ele>193.63</ele>
        <time>2015-11-15T14:24:41Z</time>
      </trkpt>
      <trkpt lat="43.6166" lon="3.7262">
        <ele>193.63</ele>
        <time>2015-11-15T14:24:42Z</time>
      </trkpt>
      <trkpt lat="43.61657" lon="3.72616">
        <ele>195.02</ele>
        <time>2015-11-15T14:24:46Z</time>
      </trkpt>
      <trkpt lat="43.61655" lon="3.72612">
        <ele>195.07</ele>
        <time>2015-11-15T14:24:50Z</time>
      </trkpt>
      <trkpt lat="43.61654" lon="3.72611">
        <ele>195.25</ele>
        <time>2015-11-15T14:24:51Z</time>
      </trkpt>
      <trkpt lat="43.61654" lon="3.7261">
        <ele>195.54</ele>
        <time>2015-11-15T14:24:52Z</time>
      </trkpt>
      <trkpt lat="43.61653" lon="3.72609">
        <ele>195.29</ele>
        <time>2015-11-15T14:24:53Z</time>
      </trkpt>
      <trkpt lat="43.61652" lon="3.72608">
        <ele>195.55</ele>
        <time>2015-11-15T14:24:54Z</time>
      </trkpt>
      <trkpt lat="43.61652" lon="3.72606">
        <ele>195.49</ele>
        <time>2015-11-15T14:24:55Z</time>
      </trkpt>
      <trkpt lat="43.6164" lon="3.7259">
        <ele>197.35</ele>
        <time>2015-11-15T14:25:12Z</time>
      </trkpt>
      <trkpt lat="43.61639" lon="3.72589">
        <ele>197.37</ele>
        <time>2015-11-15T14:25:13Z</time>
      </trkpt>
      <trkpt lat="43.61638" lon="3.72588">
        <ele>197.33</ele>
        <time>2015-11-15T14:25:14Z</time>
      </trkpt>
      <trkpt lat="43.61638" lon="3.72587">
        <ele>197.65</ele>
        <time>2015-11-15T14:25:15Z</time>
      </trkpt>
      <trkpt lat="43.61637" lon="3.72585">
        <ele>197.66</ele>
        <time>2015-11-15T14:25:16Z</time>
      </trkpt>
      <trkpt lat="43.61636" lon="3.72584">
        <ele>197.66</ele>
        <time>2015-11-15T14:25:17Z</time>
      </trkpt>
      <trkpt lat="43.61636" lon="3.72583">
        <ele>197.66</ele>
        <time>2015-11-15T14:25:18Z</time>
      </trkpt>
      <trkpt lat="43.61625" lon="3.72566">
        <ele>199.04</ele>
        <time>2015-11-15T14:25:34Z</time>
      </trkpt>
      <trkpt lat="43.6162" lon="3.72556">
        <ele>199.72</ele>
        <time>2015-11-15T14:25:42Z</time>
      </trkpt>
      <trkpt lat="43.61617" lon="3.72552">
        <ele>199.54</ele>
        <time>2015-11-15T14:25:46Z</time>
      </trkpt>
      <trkpt lat="43.61616" lon="3.72551">
        <ele>199.76</ele>
        <time>2015-11-15T14:25:47Z</time>
      </trkpt>
      <trkpt lat="43.61611" lon="3.72541">
        <ele>200.6</ele>
        <time>2015-11-15T14:25:55Z</time>
      </trkpt>
      <trkpt lat="43.6161" lon="3.72539">
        <ele>200.06</ele>
        <time>2015-11-15T14:25:56Z</time>
      </trkpt>
      <trkpt lat="43.6161" lon="3.72538">
        <ele>200.82</ele>
        <time>2015-11-15T14:25:57Z</time>
      </trkpt>
      <trkpt lat="43.61609" lon="3.72536">
        <ele>200.51</ele>
        <time>2015-11-15T14:25:58Z</time>
      </trkpt>
      <trkpt lat="43.61609" lon="3.72535">
        <ele>200</ele>
        <time>2015-11-15T14:25:59Z</time>
      </trkpt>
      <trkpt lat="43.61609" lon="3.72533">
        <ele>200.82</ele>
        <time>2015-11-15T14:26:00Z</time>
      </trkpt>
      <trkpt lat="43.61608" lon="3.72532">
        <ele>200.54</ele>
        <time>2015-11-15T14:26:01Z</time>
      </trkpt>
      <trkpt lat="43.61607" lon="3.7253">
        <ele>200.31</ele>
        <time>2015-11-15T14:26:02Z</time>
      </trkpt>
      <trkpt lat="43.61607" lon="3.72529">
        <ele>200.55</ele>
        <time>2015-11-15T14:26:03Z</time>
      </trkpt>
      <trkpt lat="43.61607" lon="3.72527">
        <ele>200.61</ele>
        <time>2015-11-15T14:26:04Z</time>
      </trkpt>
      <trkpt lat="43.61603" lon="3.72512">
        <ele>201.28</ele>
        <time>2015-11-15T14:26:14Z</time>
      </trkpt>
      <trkpt lat="43.61603" lon="3.72511">
        <ele>201.32</ele>
        <time>2015-11-15T14:26:15Z</time>
      </trkpt>
      <trkpt lat="43.61594" lon="3.72487">
        <ele>200.98</ele>
        <time>2015-11-15T14:26:32Z</time>
      </trkpt>
      <trkpt lat="43.61583" lon="3.72466">
        <ele>200.93</ele>
        <time>2015-11-15T14:26:49Z</time>
      </trkpt>
      <trkpt lat="43.61582" lon="3.72465">
        <ele>200.88</ele>
        <time>2015-11-15T14:26:50Z</time>
      </trkpt>
      <trkpt lat="43.61578" lon="3.72455">
        <ele>201.06</ele>
        <time>2015-11-15T14:26:57Z</time>
      </trkpt>
      <trkpt lat="43.61578" lon="3.72454">
        <ele>200.93</ele>
        <time>2015-11-15T14:26:58Z</time>
      </trkpt>
      <trkpt lat="43.61577" lon="3.72452">
        <ele>200.98</ele>
        <time>2015-11-15T14:26:59Z</time>
      </trkpt>
      <trkpt lat="43.61577" lon="3.72451">
        <ele>200.83</ele>
        <time>2015-11-15T14:27:00Z</time>
      </trkpt>
      <trkpt lat="43.61576" lon="3.7245">
        <ele>200.54</ele>
        <time>2015-11-15T14:27:01Z</time>
      </trkpt>
      <trkpt lat="43.61576" lon="3.72448">
        <ele>200.89</ele>
        <time>2015-11-15T14:27:02Z</time>
      </trkpt>
      <trkpt lat="43.61575" lon="3.72447">
        <ele>200.88</ele>
        <time>2015-11-15T14:27:03Z</time>
      </trkpt>
      <trkpt lat="43.61575" lon="3.72445">
        <ele>201.01</ele>
        <time>2015-11-15T14:27:04Z</time>
      </trkpt>
      <trkpt lat="43.61565" lon="3.72423">
        <ele>200.5</ele>
        <time>2015-11-15T14:27:20Z</time>
      </trkpt>
      <trkpt lat="43.61553" lon="3.72397">
        <ele>200.44</ele>
        <time>2015-11-15T14:27:40Z</time>
      </trkpt>
      <trkpt lat="43.61542" lon="3.72377">
        <ele>199.95</ele>
        <time>2015-11-15T14:27:56Z</time>
      </trkpt>
      <trkpt lat="43.61531" lon="3.7236">
        <ele>199.54</ele>
        <time>2015-11-15T14:28:11Z</time>
      </trkpt>
      <trkpt lat="43.61514" lon="3.72339">
        <ele>198.65</ele>
        <time>2015-11-15T14:28:30Z</time>
      </trkpt>
      <trkpt lat="43.61497" lon="3.72317">
        <ele>198.42</ele>
        <time>2015-11-15T14:28:50Z</time>
      </trkpt>
      <trkpt lat="43.61483" lon="3.72298">
        <ele>197.56</ele>
        <time>2015-11-15T14:29:07Z</time>
      </trkpt>
      <trkpt lat="43.61467" lon="3.72277">
        <ele>196.96</ele>
        <time>2015-11-15T14:29:25Z</time>
      </trkpt>
      <trkpt lat="43.61451" lon="3.72261">
        <ele>196.3</ele>
        <time>2015-11-15T14:29:43Z</time>
      </trkpt>
      <trkpt lat="43.61437" lon="3.72247">
        <ele>195.72</ele>
        <time>2015-11-15T14:30:00Z</time>
      </trkpt>
      <trkpt lat="43.6142" lon="3.72232">
        <ele>194.68</ele>
        <time>2015-11-15T14:30:18Z</time>
      </trkpt>
      <trkpt lat="43.61413" lon="3.72223">
        <ele>193.9</ele>
        <time>2015-11-15T14:30:26Z</time>
      </trkpt>
      <trkpt lat="43.61412" lon="3.72222">
        <ele>193.89</ele>
        <time>2015-11-15T14:30:28Z</time>
      </trkpt>
      <trkpt lat="43.61403" lon="3.72215">
        <ele>192.77</ele>
        <time>2015-11-15T14:30:38Z</time>
      </trkpt>
      <trkpt lat="43.61402" lon="3.72214">
        <ele>193.06</ele>
        <time>2015-11-15T14:30:39Z</time>
      </trkpt>
      <trkpt lat="43.61386" lon="3.72196">
        <ele>190.71</ele>
        <time>2015-11-15T14:30:56Z</time>
      </trkpt>
      <trkpt lat="43.61365" lon="3.72187">
        <ele>190.06</ele>
        <time>2015-11-15T14:31:15Z</time>
      </trkpt>
      <trkpt lat="43.61352" lon="3.72181">
        <ele>188.54</ele>
        <time>2015-11-15T14:31:27Z</time>
      </trkpt>
      <trkpt lat="43.61351" lon="3.72181">
        <ele>187.96</ele>
        <time>2015-11-15T14:31:28Z</time>
      </trkpt>
      <trkpt lat="43.6135" lon="3.7218">
        <ele>187.59</ele>
        <time>2015-11-15T14:31:29Z</time>
      </trkpt>
      <trkpt lat="43.61341" lon="3.72176">
        <ele>186.87</ele>
        <time>2015-11-15T14:31:37Z</time>
      </trkpt>
      <trkpt lat="43.6134" lon="3.72175">
        <ele>187.04</ele>
        <time>2015-11-15T14:31:38Z</time>
      </trkpt>
      <trkpt lat="43.61332" lon="3.72171">
        <ele>186.16</ele>
        <time>2015-11-15T14:31:46Z</time>
      </trkpt>
      <trkpt lat="43.61331" lon="3.72171">
        <ele>186.03</ele>
        <time>2015-11-15T14:31:47Z</time>
      </trkpt>
      <trkpt lat="43.61329" lon="3.72169">
        <ele>185.78</ele>
        <time>2015-11-15T14:31:50Z</time>
      </trkpt>
      <trkpt lat="43.61325" lon="3.72167">
        <ele>185.49</ele>
        <time>2015-11-15T14:32:02Z</time>
      </trkpt>
      <trkpt lat="43.61327" lon="3.72167">
        <ele>185.7</ele>
        <time>2015-11-15T14:32:39Z</time>
      </trkpt>
      <trkpt lat="43.61326" lon="3.72168">
        <ele>185.59</ele>
        <time>2015-11-15T14:33:01Z</time>
      </trkpt>
      <trkpt lat="43.61318" lon="3.7216">
        <ele>184.62</ele>
        <time>2015-11-15T14:33:18Z</time>
      </trkpt>
      <trkpt lat="43.61317" lon="3.72162">
        <ele>184.73</ele>
        <time>2015-11-15T14:33:41Z</time>
      </trkpt>
      <trkpt lat="43.61306" lon="3.72152">
        <ele>184.01</ele>
        <time>2015-11-15T14:34:03Z</time>
      </trkpt>
      <trkpt lat="43.61304" lon="3.7215">
        <ele>183.91</ele>
        <time>2015-11-15T14:34:06Z</time>
      </trkpt>
      <trkpt lat="43.61284" lon="3.72136">
        <ele>181.94</ele>
        <time>2015-11-15T14:34:25Z</time>
      </trkpt>
      <trkpt lat="43.61266" lon="3.72123">
        <ele>181.44</ele>
        <time>2015-11-15T14:34:41Z</time>
      </trkpt>
      <trkpt lat="43.61257" lon="3.72102">
        <ele>179.52</ele>
        <time>2015-11-15T14:34:58Z</time>
      </trkpt>
      <trkpt lat="43.61257" lon="3.72096">
        <ele>178.34</ele>
        <time>2015-11-15T14:35:02Z</time>
      </trkpt>
      <trkpt lat="43.61257" lon="3.72093">
        <ele>178.57</ele>
        <time>2015-11-15T14:35:04Z</time>
      </trkpt>
      <trkpt lat="43.61263" lon="3.72077">
        <ele>176.34</ele>
        <time>2015-11-15T14:35:18Z</time>
      </trkpt>
      <trkpt lat="43.61263" lon="3.72075">
        <ele>176.2</ele>
        <time>2015-11-15T14:35:19Z</time>
      </trkpt>
      <trkpt lat="43.61264" lon="3.72074">
        <ele>175.69</ele>
        <time>2015-11-15T14:35:20Z</time>
      </trkpt>
      <trkpt lat="43.61264" lon="3.72073">
        <ele>176.01</ele>
        <time>2015-11-15T14:35:21Z</time>
      </trkpt>
      <trkpt lat="43.61265" lon="3.72071">
        <ele>175.54</ele>
        <time>2015-11-15T14:35:22Z</time>
      </trkpt>
      <trkpt lat="43.61266" lon="3.7207">
        <ele>175.58</ele>
        <time>2015-11-15T14:35:23Z</time>
      </trkpt>
      <trkpt lat="43.61267" lon="3.72069">
        <ele>175.05</ele>
        <time>2015-11-15T14:35:24Z</time>
      </trkpt>
      <trkpt lat="43.61268" lon="3.72067">
        <ele>175.36</ele>
        <time>2015-11-15T14:35:25Z</time>
      </trkpt>
      <trkpt lat="43.61268" lon="3.72066">
        <ele>175.23</ele>
        <time>2015-11-15T14:35:26Z</time>
      </trkpt>
      <trkpt lat="43.61269" lon="3.72065">
        <ele>174.97</ele>
        <time>2015-11-15T14:35:27Z</time>
      </trkpt>
      <trkpt lat="43.6127" lon="3.72064">
        <ele>175.49</ele>
        <time>2015-11-15T14:35:28Z</time>
      </trkpt>
      <trkpt lat="43.61271" lon="3.72062">
        <ele>175.53</ele>
        <time>2015-11-15T14:35:29Z</time>
      </trkpt>
      <trkpt lat="43.61272" lon="3.72061">
        <ele>175.24</ele>
        <time>2015-11-15T14:35:30Z</time>
      </trkpt>
      <trkpt lat="43.61274" lon="3.72057">
        <ele>174.69</ele>
        <time>2015-11-15T14:35:33Z</time>
      </trkpt>
      <trkpt lat="43.61282" lon="3.72037">
        <ele>172.75</ele>
        <time>2015-11-15T14:35:48Z</time>
      </trkpt>
      <trkpt lat="43.61287" lon="3.72026">
        <ele>171.82</ele>
        <time>2015-11-15T14:36:00Z</time>
      </trkpt>
      <trkpt lat="43.61289" lon="3.72021">
        <ele>171.42</ele>
        <time>2015-11-15T14:36:04Z</time>
      </trkpt>
      <trkpt lat="43.6129" lon="3.7202">
        <ele>170.62</ele>
        <time>2015-11-15T14:36:05Z</time>
      </trkpt>
      <trkpt lat="43.61291" lon="3.72019">
        <ele>170.96</ele>
        <time>2015-11-15T14:36:06Z</time>
      </trkpt>
      <trkpt lat="43.61299" lon="3.72005">
        <ele>168.65</ele>
        <time>2015-11-15T14:36:19Z</time>
      </trkpt>
      <trkpt lat="43.61306" lon="3.71993">
        <ele>167.54</ele>
        <time>2015-11-15T14:36:29Z</time>
      </trkpt>
      <trkpt lat="43.61309" lon="3.71987">
        <ele>166.59</ele>
        <time>2015-11-15T14:36:35Z</time>
      </trkpt>
      <trkpt lat="43.61309" lon="3.71985">
        <ele>166.46</ele>
        <time>2015-11-15T14:36:36Z</time>
      </trkpt>
      <trkpt lat="43.6131" lon="3.71984">
        <ele>166.2</ele>
        <time>2015-11-15T14:36:37Z</time>
      </trkpt>
      <trkpt lat="43.61311" lon="3.71982">
        <ele>166.03</ele>
        <time>2015-11-15T14:36:38Z</time>
      </trkpt>
      <trkpt lat="43.61311" lon="3.71981">
        <ele>166.22</ele>
        <time>2015-11-15T14:36:39Z</time>
      </trkpt>
      <trkpt lat="43.6132" lon="3.71963">
        <ele>164.53</ele>
        <time>2015-11-15T14:36:53Z</time>
      </trkpt>
      <trkpt lat="43.61321" lon="3.71952">
        <ele>163.72</ele>
        <time>2015-11-15T14:37:00Z</time>
      </trkpt>
      <trkpt lat="43.61322" lon="3.71951">
        <ele>164.06</ele>
        <time>2015-11-15T14:37:01Z</time>
      </trkpt>
      <trkpt lat="43.61323" lon="3.7195">
        <ele>163.42</ele>
        <time>2015-11-15T14:37:02Z</time>
      </trkpt>
      <trkpt lat="43.61323" lon="3.71949">
        <ele>163.25</ele>
        <time>2015-11-15T14:37:03Z</time>
      </trkpt>
      <trkpt lat="43.61324" lon="3.71948">
        <ele>163.73</ele>
        <time>2015-11-15T14:37:04Z</time>
      </trkpt>
      <trkpt lat="43.61328" lon="3.71928">
        <ele>163.66</ele>
        <time>2015-11-15T14:37:18Z</time>
      </trkpt>
      <trkpt lat="43.61327" lon="3.71922">
        <ele>163.68</ele>
        <time>2015-11-15T14:37:22Z</time>
      </trkpt>
      <trkpt lat="43.61326" lon="3.71918">
        <ele>164.31</ele>
        <time>2015-11-15T14:37:26Z</time>
      </trkpt>
      <trkpt lat="43.61326" lon="3.71916">
        <ele>164.73</ele>
        <time>2015-11-15T14:37:27Z</time>
      </trkpt>
      <trkpt lat="43.61325" lon="3.71915">
        <ele>164.57</ele>
        <time>2015-11-15T14:37:28Z</time>
      </trkpt>
      <trkpt lat="43.61321" lon="3.71905">
        <ele>165.14</ele>
        <time>2015-11-15T14:37:35Z</time>
      </trkpt>
      <trkpt lat="43.6132" lon="3.71904">
        <ele>165.25</ele>
        <time>2015-11-15T14:37:37Z</time>
      </trkpt>
      <trkpt lat="43.61319" lon="3.71902">
        <ele>165.65</ele>
        <time>2015-11-15T14:37:38Z</time>
      </trkpt>
      <trkpt lat="43.61318" lon="3.71899">
        <ele>166.53</ele>
        <time>2015-11-15T14:37:40Z</time>
      </trkpt>
      <trkpt lat="43.61316" lon="3.71896">
        <ele>166.25</ele>
        <time>2015-11-15T14:37:43Z</time>
      </trkpt>
      <trkpt lat="43.61315" lon="3.71894">
        <ele>166.39</ele>
        <time>2015-11-15T14:37:44Z</time>
      </trkpt>
      <trkpt lat="43.61315" lon="3.71893">
        <ele>165.82</ele>
        <time>2015-11-15T14:37:45Z</time>
      </trkpt>
      <trkpt lat="43.61314" lon="3.71892">
        <ele>165.97</ele>
        <time>2015-11-15T14:37:46Z</time>
      </trkpt>
      <trkpt lat="43.61313" lon="3.71891">
        <ele>166.39</ele>
        <time>2015-11-15T14:37:47Z</time>
      </trkpt>
      <trkpt lat="43.61312" lon="3.71889">
        <ele>165.93</ele>
        <time>2015-11-15T14:37:48Z</time>
      </trkpt>
      <trkpt lat="43.61307" lon="3.71873">
        <ele>167.15</ele>
        <time>2015-11-15T14:38:00Z</time>
      </trkpt>
      <trkpt lat="43.61306" lon="3.71872">
        <ele>167.23</ele>
        <time>2015-11-15T14:38:01Z</time>
      </trkpt>
      <trkpt lat="43.61306" lon="3.7187">
        <ele>167.3</ele>
        <time>2015-11-15T14:38:02Z</time>
      </trkpt>
      <trkpt lat="43.61305" lon="3.71869">
        <ele>167.25</ele>
        <time>2015-11-15T14:38:03Z</time>
      </trkpt>
      <trkpt lat="43.61304" lon="3.71867">
        <ele>167.73</ele>
        <time>2015-11-15T14:38:04Z</time>
      </trkpt>
      <trkpt lat="43.613" lon="3.7185">
        <ele>168.29</ele>
        <time>2015-11-15T14:38:16Z</time>
      </trkpt>
      <trkpt lat="43.61299" lon="3.71847">
        <ele>169.18</ele>
        <time>2015-11-15T14:38:18Z</time>
      </trkpt>
      <trkpt lat="43.61299" lon="3.71845">
        <ele>168.76</ele>
        <time>2015-11-15T14:38:19Z</time>
      </trkpt>
      <trkpt lat="43.61298" lon="3.71844">
        <ele>169.59</ele>
        <time>2015-11-15T14:38:20Z</time>
      </trkpt>
      <trkpt lat="43.61298" lon="3.71842">
        <ele>169.59</ele>
        <time>2015-11-15T14:38:21Z</time>
      </trkpt>
      <trkpt lat="43.61298" lon="3.71841">
        <ele>169.68</ele>
        <time>2015-11-15T14:38:22Z</time>
      </trkpt>
      <trkpt lat="43.61297" lon="3.71837">
        <ele>169.9</ele>
        <time>2015-11-15T14:38:25Z</time>
      </trkpt>
      <trkpt lat="43.61297" lon="3.71836">
        <ele>170.18</ele>
        <time>2015-11-15T14:38:26Z</time>
      </trkpt>
      <trkpt lat="43.61296" lon="3.71834">
        <ele>170.35</ele>
        <time>2015-11-15T14:38:27Z</time>
      </trkpt>
      <trkpt lat="43.61296" lon="3.71833">
        <ele>170.01</ele>
        <time>2015-11-15T14:38:28Z</time>
      </trkpt>
      <trkpt lat="43.61292" lon="3.71815">
        <ele>170.76</ele>
        <time>2015-11-15T14:38:41Z</time>
      </trkpt>
      <trkpt lat="43.61289" lon="3.71804">
        <ele>171.45</ele>
        <time>2015-11-15T14:38:48Z</time>
      </trkpt>
      <trkpt lat="43.61289" lon="3.71803">
        <ele>171.72</ele>
        <time>2015-11-15T14:38:49Z</time>
      </trkpt>
      <trkpt lat="43.61288" lon="3.71801">
        <ele>171.22</ele>
        <time>2015-11-15T14:38:50Z</time>
      </trkpt>
      <trkpt lat="43.61288" lon="3.718">
        <ele>171.01</ele>
        <time>2015-11-15T14:38:51Z</time>
      </trkpt>
      <trkpt lat="43.61287" lon="3.71798">
        <ele>171.3</ele>
        <time>2015-11-15T14:38:52Z</time>
      </trkpt>
      <trkpt lat="43.61287" lon="3.71796">
        <ele>171.45</ele>
        <time>2015-11-15T14:38:53Z</time>
      </trkpt>
      <trkpt lat="43.61287" lon="3.71794">
        <ele>171.65</ele>
        <time>2015-11-15T14:38:54Z</time>
      </trkpt>
      <trkpt lat="43.61287" lon="3.71792">
        <ele>171.6</ele>
        <time>2015-11-15T14:38:55Z</time>
      </trkpt>
      <trkpt lat="43.61286" lon="3.7179">
        <ele>171.42</ele>
        <time>2015-11-15T14:38:56Z</time>
      </trkpt>
      <trkpt lat="43.61286" lon="3.71789">
        <ele>171.33</ele>
        <time>2015-11-15T14:38:57Z</time>
      </trkpt>
      <trkpt lat="43.61285" lon="3.71788">
        <ele>171.98</ele>
        <time>2015-11-15T14:38:58Z</time>
      </trkpt>
      <trkpt lat="43.61278" lon="3.71769">
        <ele>172</ele>
        <time>2015-11-15T14:39:11Z</time>
      </trkpt>
      <trkpt lat="43.61275" lon="3.71759">
        <ele>172.39</ele>
        <time>2015-11-15T14:39:17Z</time>
      </trkpt>
      <trkpt lat="43.61274" lon="3.71758">
        <ele>172.6</ele>
        <time>2015-11-15T14:39:18Z</time>
      </trkpt>
      <trkpt lat="43.61274" lon="3.71756">
        <ele>172.27</ele>
        <time>2015-11-15T14:39:19Z</time>
      </trkpt>
      <trkpt lat="43.61274" lon="3.71754">
        <ele>172.64</ele>
        <time>2015-11-15T14:39:20Z</time>
      </trkpt>
      <trkpt lat="43.61273" lon="3.71752">
        <ele>172.72</ele>
        <time>2015-11-15T14:39:21Z</time>
      </trkpt>
      <trkpt lat="43.61273" lon="3.71751">
        <ele>172.51</ele>
        <time>2015-11-15T14:39:22Z</time>
      </trkpt>
      <trkpt lat="43.61272" lon="3.71749">
        <ele>172.5</ele>
        <time>2015-11-15T14:39:23Z</time>
      </trkpt>
      <trkpt lat="43.61272" lon="3.71749">
        <ele>172.74</ele>
        <time>2015-11-15T14:39:24Z</time>
      </trkpt>
      <trkpt lat="43.61272" lon="3.71747">
        <ele>172.3</ele>
        <time>2015-11-15T14:39:25Z</time>
      </trkpt>
      <trkpt lat="43.61271" lon="3.71745">
        <ele>173.5</ele>
        <time>2015-11-15T14:39:26Z</time>
      </trkpt>
      <trkpt lat="43.6127" lon="3.7174">
        <ele>173.02</ele>
        <time>2015-11-15T14:39:29Z</time>
      </trkpt>
      <trkpt lat="43.6127" lon="3.71738">
        <ele>173.14</ele>
        <time>2015-11-15T14:39:30Z</time>
      </trkpt>
      <trkpt lat="43.61269" lon="3.71736">
        <ele>173.01</ele>
        <time>2015-11-15T14:39:32Z</time>
      </trkpt>
      <trkpt lat="43.61268" lon="3.71735">
        <ele>173.22</ele>
        <time>2015-11-15T14:39:33Z</time>
      </trkpt>
      <trkpt lat="43.61268" lon="3.71733">
        <ele>173.37</ele>
        <time>2015-11-15T14:39:34Z</time>
      </trkpt>
      <trkpt lat="43.61267" lon="3.71732">
        <ele>173.2</ele>
        <time>2015-11-15T14:39:35Z</time>
      </trkpt>
      <trkpt lat="43.61266" lon="3.7173">
        <ele>173.48</ele>
        <time>2015-11-15T14:39:36Z</time>
      </trkpt>
      <trkpt lat="43.61264" lon="3.71725">
        <ele>173.68</ele>
        <time>2015-11-15T14:39:41Z</time>
      </trkpt>
      <trkpt lat="43.61263" lon="3.71724">
        <ele>173.58</ele>
        <time>2015-11-15T14:39:42Z</time>
      </trkpt>
      <trkpt lat="43.61262" lon="3.71723">
        <ele>173.51</ele>
        <time>2015-11-15T14:39:43Z</time>
      </trkpt>
      <trkpt lat="43.61262" lon="3.71721">
        <ele>173.5</ele>
        <time>2015-11-15T14:39:44Z</time>
      </trkpt>
      <trkpt lat="43.61261" lon="3.7172">
        <ele>173.52</ele>
        <time>2015-11-15T14:39:45Z</time>
      </trkpt>
      <trkpt lat="43.61258" lon="3.71713">
        <ele>174.1</ele>
        <time>2015-11-15T14:39:49Z</time>
      </trkpt>
      <trkpt lat="43.61255" lon="3.71704">
        <ele>174.18</ele>
        <time>2015-11-15T14:39:55Z</time>
      </trkpt>
      <trkpt lat="43.61255" lon="3.71703">
        <ele>174.72</ele>
        <time>2015-11-15T14:39:56Z</time>
      </trkpt>
      <trkpt lat="43.61254" lon="3.71702">
        <ele>174.63</ele>
        <time>2015-11-15T14:39:57Z</time>
      </trkpt>
      <trkpt lat="43.61254" lon="3.71701">
        <ele>174.78</ele>
        <time>2015-11-15T14:39:58Z</time>
      </trkpt>
      <trkpt lat="43.61253" lon="3.71699">
        <ele>174.61</ele>
        <time>2015-11-15T14:39:59Z</time>
      </trkpt>
      <trkpt lat="43.61245" lon="3.71677">
        <ele>175.48</ele>
        <time>2015-11-15T14:40:14Z</time>
      </trkpt>
      <trkpt lat="43.61242" lon="3.71671">
        <ele>175.58</ele>
        <time>2015-11-15T14:40:17Z</time>
      </trkpt>
      <trkpt lat="43.61242" lon="3.7167">
        <ele>175.55</ele>
        <time>2015-11-15T14:40:18Z</time>
      </trkpt>
      <trkpt lat="43.61242" lon="3.71669">
        <ele>175.41</ele>
        <time>2015-11-15T14:40:19Z</time>
      </trkpt>
      <trkpt lat="43.61235" lon="3.71648">
        <ele>175.63</ele>
        <time>2015-11-15T14:40:33Z</time>
      </trkpt>
      <trkpt lat="43.61227" lon="3.71627">
        <ele>175.64</ele>
        <time>2015-11-15T14:40:49Z</time>
      </trkpt>
      <trkpt lat="43.61219" lon="3.71606">
        <ele>176.66</ele>
        <time>2015-11-15T14:41:04Z</time>
      </trkpt>
      <trkpt lat="43.61213" lon="3.71588">
        <ele>177.52</ele>
        <time>2015-11-15T14:41:17Z</time>
      </trkpt>
      <trkpt lat="43.61208" lon="3.71573">
        <ele>179.24</ele>
        <time>2015-11-15T14:41:28Z</time>
      </trkpt>
      <trkpt lat="43.61208" lon="3.71572">
        <ele>179.27</ele>
        <time>2015-11-15T14:41:29Z</time>
      </trkpt>
      <trkpt lat="43.61207" lon="3.71568">
        <ele>179.75</ele>
        <time>2015-11-15T14:41:32Z</time>
      </trkpt>
      <trkpt lat="43.61206" lon="3.71567">
        <ele>179.89</ele>
        <time>2015-11-15T14:41:33Z</time>
      </trkpt>
      <trkpt lat="43.61206" lon="3.71565">
        <ele>180.3</ele>
        <time>2015-11-15T14:41:34Z</time>
      </trkpt>
      <trkpt lat="43.61205" lon="3.71564">
        <ele>180.41</ele>
        <time>2015-11-15T14:41:35Z</time>
      </trkpt>
      <trkpt lat="43.61205" lon="3.71562">
        <ele>180.7</ele>
        <time>2015-11-15T14:41:36Z</time>
      </trkpt>
      <trkpt lat="43.61204" lon="3.71561">
        <ele>180.83</ele>
        <time>2015-11-15T14:41:37Z</time>
      </trkpt>
      <trkpt lat="43.61204" lon="3.7156">
        <ele>181.59</ele>
        <time>2015-11-15T14:41:38Z</time>
      </trkpt>
      <trkpt lat="43.61204" lon="3.71559">
        <ele>181.56</ele>
        <time>2015-11-15T14:41:39Z</time>
      </trkpt>
      <trkpt lat="43.61203" lon="3.71557">
        <ele>181.64</ele>
        <time>2015-11-15T14:41:40Z</time>
      </trkpt>
      <trkpt lat="43.61201" lon="3.71552">
        <ele>182.42</ele>
        <time>2015-11-15T14:41:45Z</time>
      </trkpt>
      <trkpt lat="43.61201" lon="3.7155">
        <ele>182.53</ele>
        <time>2015-11-15T14:41:46Z</time>
      </trkpt>
      <trkpt lat="43.61201" lon="3.71548">
        <ele>182.62</ele>
        <time>2015-11-15T14:41:48Z</time>
      </trkpt>
      <trkpt lat="43.61201" lon="3.71547">
        <ele>182.12</ele>
        <time>2015-11-15T14:41:49Z</time>
      </trkpt>
      <trkpt lat="43.61202" lon="3.71542">
        <ele>183.06</ele>
        <time>2015-11-15T14:41:52Z</time>
      </trkpt>
      <trkpt lat="43.61202" lon="3.71522">
        <ele>184.76</ele>
        <time>2015-11-15T14:42:05Z</time>
      </trkpt>
      <trkpt lat="43.61205" lon="3.7149">
        <ele>185.84</ele>
        <time>2015-11-15T14:42:27Z</time>
      </trkpt>
      <trkpt lat="43.61206" lon="3.71463">
        <ele>187.38</ele>
        <time>2015-11-15T14:42:45Z</time>
      </trkpt>
      <trkpt lat="43.61204" lon="3.71433">
        <ele>188.92</ele>
        <time>2015-11-15T14:43:05Z</time>
      </trkpt>
      <trkpt lat="43.612" lon="3.71406">
        <ele>190.61</ele>
        <time>2015-11-15T14:43:23Z</time>
      </trkpt>
      <trkpt lat="43.61198" lon="3.71384">
        <ele>191.5</ele>
        <time>2015-11-15T14:43:37Z</time>
      </trkpt>
      <trkpt lat="43.61196" lon="3.71364">
        <ele>192.63</ele>
        <time>2015-11-15T14:43:49Z</time>
      </trkpt>
      <trkpt lat="43.61197" lon="3.7136">
        <ele>192.75</ele>
        <time>2015-11-15T14:43:52Z</time>
      </trkpt>
      <trkpt lat="43.61197" lon="3.71358">
        <ele>193.02</ele>
        <time>2015-11-15T14:43:53Z</time>
      </trkpt>
      <trkpt lat="43.61198" lon="3.71357">
        <ele>192.9</ele>
        <time>2015-11-15T14:43:54Z</time>
      </trkpt>
      <trkpt lat="43.61201" lon="3.71351">
        <ele>193</ele>
        <time>2015-11-15T14:43:58Z</time>
      </trkpt>
      <trkpt lat="43.61211" lon="3.71341">
        <ele>192.62</ele>
        <time>2015-11-15T14:44:09Z</time>
      </trkpt>
      <trkpt lat="43.61212" lon="3.7132">
        <ele>193.62</ele>
        <time>2015-11-15T14:44:23Z</time>
      </trkpt>
      <trkpt lat="43.61208" lon="3.71307">
        <ele>194.18</ele>
        <time>2015-11-15T14:44:33Z</time>
      </trkpt>
      <trkpt lat="43.61207" lon="3.71306">
        <ele>194.43</ele>
        <time>2015-11-15T14:44:34Z</time>
      </trkpt>
      <trkpt lat="43.61208" lon="3.71294">
        <ele>193.75</ele>
        <time>2015-11-15T14:44:48Z</time>
      </trkpt>
      <trkpt lat="43.6121" lon="3.71288">
        <ele>193.33</ele>
        <time>2015-11-15T14:44:57Z</time>
      </trkpt>
      <trkpt lat="43.61211" lon="3.71287">
        <ele>193.65</ele>
        <time>2015-11-15T14:44:58Z</time>
      </trkpt>
      <trkpt lat="43.61214" lon="3.71278">
        <ele>193.54</ele>
        <time>2015-11-15T14:45:05Z</time>
      </trkpt>
      <trkpt lat="43.61215" lon="3.71277">
        <ele>193.71</ele>
        <time>2015-11-15T14:45:06Z</time>
      </trkpt>
      <trkpt lat="43.61217" lon="3.71265">
        <ele>192.98</ele>
        <time>2015-11-15T14:45:19Z</time>
      </trkpt>
      <trkpt lat="43.61218" lon="3.71261">
        <ele>192.76</ele>
        <time>2015-11-15T14:45:29Z</time>
      </trkpt>
      <trkpt lat="43.61219" lon="3.7126">
        <ele>192.95</ele>
        <time>2015-11-15T14:45:30Z</time>
      </trkpt>
      <trkpt lat="43.61229" lon="3.71247">
        <ele>192.93</ele>
        <time>2015-11-15T14:45:44Z</time>
      </trkpt>
      <trkpt lat="43.61244" lon="3.71227">
        <ele>192.4</ele>
        <time>2015-11-15T14:46:04Z</time>
      </trkpt>
      <trkpt lat="43.61249" lon="3.71218">
        <ele>192.76</ele>
        <time>2015-11-15T14:46:12Z</time>
      </trkpt>
      <trkpt lat="43.6125" lon="3.71217">
        <ele>192.37</ele>
        <time>2015-11-15T14:46:13Z</time>
      </trkpt>
      <trkpt lat="43.6125" lon="3.71216">
        <ele>192.51</ele>
        <time>2015-11-15T14:46:14Z</time>
      </trkpt>
      <trkpt lat="43.61251" lon="3.71215">
        <ele>192.5</ele>
        <time>2015-11-15T14:46:15Z</time>
      </trkpt>
      <trkpt lat="43.61258" lon="3.71207">
        <ele>192</ele>
        <time>2015-11-15T14:46:25Z</time>
      </trkpt>
      <trkpt lat="43.61259" lon="3.71206">
        <ele>192.25</ele>
        <time>2015-11-15T14:46:26Z</time>
      </trkpt>
      <trkpt lat="43.61263" lon="3.71201">
        <ele>191.79</ele>
        <time>2015-11-15T14:46:31Z</time>
      </trkpt>
      <trkpt lat="43.61274" lon="3.71185">
        <ele>192</ele>
        <time>2015-11-15T14:46:46Z</time>
      </trkpt>
      <trkpt lat="43.61287" lon="3.7117">
        <ele>191.36</ele>
        <time>2015-11-15T14:47:02Z</time>
      </trkpt>
      <trkpt lat="43.61302" lon="3.71159">
        <ele>190.85</ele>
        <time>2015-11-15T14:47:18Z</time>
      </trkpt>
      <trkpt lat="43.61307" lon="3.71157">
        <ele>191.24</ele>
        <time>2015-11-15T14:47:35Z</time>
      </trkpt>
      <trkpt lat="43.61309" lon="3.71154">
        <ele>190.81</ele>
        <time>2015-11-15T14:48:06Z</time>
      </trkpt>
      <trkpt lat="43.61312" lon="3.71151">
        <ele>190.81</ele>
        <time>2015-11-15T14:48:10Z</time>
      </trkpt>
      <trkpt lat="43.6132" lon="3.71139">
        <ele>189.39</ele>
        <time>2015-11-15T14:48:21Z</time>
      </trkpt>
      <trkpt lat="43.61321" lon="3.71137">
        <ele>189.63</ele>
        <time>2015-11-15T14:48:22Z</time>
      </trkpt>
      <trkpt lat="43.61333" lon="3.71118">
        <ele>188.37</ele>
        <time>2015-11-15T14:48:38Z</time>
      </trkpt>
      <trkpt lat="43.61346" lon="3.71095">
        <ele>187.3</ele>
        <time>2015-11-15T14:48:56Z</time>
      </trkpt>
      <trkpt lat="43.61349" lon="3.71072">
        <ele>186.59</ele>
        <time>2015-11-15T14:49:13Z</time>
      </trkpt>
      <trkpt lat="43.61352" lon="3.7104">
        <ele>185.51</ele>
        <time>2015-11-15T14:49:35Z</time>
      </trkpt>
      <trkpt lat="43.61354" lon="3.71024">
        <ele>185.51</ele>
        <time>2015-11-15T14:49:46Z</time>
      </trkpt>
      <trkpt lat="43.61353" lon="3.71007">
        <ele>184.27</ele>
        <time>2015-11-15T14:49:58Z</time>
      </trkpt>
      <trkpt lat="43.61352" lon="3.71">
        <ele>183.48</ele>
        <time>2015-11-15T14:50:04Z</time>
      </trkpt>
      <trkpt lat="43.61351" lon="3.70998">
        <ele>183.54</ele>
        <time>2015-11-15T14:50:05Z</time>
      </trkpt>
      <trkpt lat="43.61351" lon="3.70997">
        <ele>183.85</ele>
        <time>2015-11-15T14:50:06Z</time>
      </trkpt>
      <trkpt lat="43.61341" lon="3.70993">
        <ele>181.53</ele>
        <time>2015-11-15T14:50:16Z</time>
      </trkpt>
      <trkpt lat="43.61325" lon="3.70997">
        <ele>180.28</ele>
        <time>2015-11-15T14:50:31Z</time>
      </trkpt>
      <trkpt lat="43.61312" lon="3.70995">
        <ele>179.11</ele>
        <time>2015-11-15T14:50:42Z</time>
      </trkpt>
      <trkpt lat="43.61298" lon="3.70987">
        <ele>176.95</ele>
        <time>2015-11-15T14:50:59Z</time>
      </trkpt>
      <trkpt lat="43.61296" lon="3.70987">
        <ele>176.33</ele>
        <time>2015-11-15T14:51:01Z</time>
      </trkpt>
      <trkpt lat="43.61294" lon="3.70983">
        <ele>175.98</ele>
        <time>2015-11-15T14:51:15Z</time>
      </trkpt>
      <trkpt lat="43.6129" lon="3.70981">
        <ele>175.71</ele>
        <time>2015-11-15T14:51:22Z</time>
      </trkpt>
      <trkpt lat="43.61289" lon="3.7098">
        <ele>175.7</ele>
        <time>2015-11-15T14:51:23Z</time>
      </trkpt>
      <trkpt lat="43.61288" lon="3.70979">
        <ele>175.7</ele>
        <time>2015-11-15T14:51:24Z</time>
      </trkpt>
      <trkpt lat="43.61287" lon="3.70979">
        <ele>174.69</ele>
        <time>2015-11-15T14:51:25Z</time>
      </trkpt>
      <trkpt lat="43.61285" lon="3.70979">
        <ele>174.61</ele>
        <time>2015-11-15T14:51:27Z</time>
      </trkpt>
      <trkpt lat="43.61276" lon="3.70975">
        <ele>174.16</ele>
        <time>2015-11-15T14:51:37Z</time>
      </trkpt>
      <trkpt lat="43.61275" lon="3.70975">
        <ele>173.87</ele>
        <time>2015-11-15T14:51:38Z</time>
      </trkpt>
      <trkpt lat="43.61274" lon="3.70975">
        <ele>173.44</ele>
        <time>2015-11-15T14:51:39Z</time>
      </trkpt>
      <trkpt lat="43.61264" lon="3.70973">
        <ele>172.76</ele>
        <time>2015-11-15T14:51:51Z</time>
      </trkpt>
      <trkpt lat="43.61263" lon="3.70973">
        <ele>173.04</ele>
        <time>2015-11-15T14:51:52Z</time>
      </trkpt>
      <trkpt lat="43.61262" lon="3.70972">
        <ele>172.17</ele>
        <time>2015-11-15T14:51:53Z</time>
      </trkpt>
      <trkpt lat="43.61261" lon="3.70972">
        <ele>172.05</ele>
        <time>2015-11-15T14:51:54Z</time>
      </trkpt>
      <trkpt lat="43.6126" lon="3.70971">
        <ele>172.27</ele>
        <time>2015-11-15T14:51:55Z</time>
      </trkpt>
      <trkpt lat="43.61258" lon="3.70971">
        <ele>171.95</ele>
        <time>2015-11-15T14:51:57Z</time>
      </trkpt>
      <trkpt lat="43.61244" lon="3.7097">
        <ele>170.68</ele>
        <time>2015-11-15T14:52:09Z</time>
      </trkpt>
      <trkpt lat="43.61243" lon="3.70969">
        <ele>170.6</ele>
        <time>2015-11-15T14:52:10Z</time>
      </trkpt>
      <trkpt lat="43.61242" lon="3.70969">
        <ele>170.68</ele>
        <time>2015-11-15T14:52:11Z</time>
      </trkpt>
      <trkpt lat="43.61241" lon="3.7097">
        <ele>170.51</ele>
        <time>2015-11-15T14:52:12Z</time>
      </trkpt>
      <trkpt lat="43.6124" lon="3.70969">
        <ele>170.13</ele>
        <time>2015-11-15T14:52:13Z</time>
      </trkpt>
      <trkpt lat="43.61238" lon="3.70969">
        <ele>170.39</ele>
        <time>2015-11-15T14:52:14Z</time>
      </trkpt>
      <trkpt lat="43.61236" lon="3.70969">
        <ele>169.96</ele>
        <time>2015-11-15T14:52:16Z</time>
      </trkpt>
      <trkpt lat="43.61218" lon="3.7097">
        <ele>169.02</ele>
        <time>2015-11-15T14:52:30Z</time>
      </trkpt>
      <trkpt lat="43.61199" lon="3.70971">
        <ele>168.33</ele>
        <time>2015-11-15T14:52:44Z</time>
      </trkpt>
      <trkpt lat="43.61198" lon="3.70972">
        <ele>168.56</ele>
        <time>2015-11-15T14:52:45Z</time>
      </trkpt>
      <trkpt lat="43.61184" lon="3.70971">
        <ele>167.77</ele>
        <time>2015-11-15T14:52:56Z</time>
      </trkpt>
      <trkpt lat="43.61183" lon="3.70971">
        <ele>168.09</ele>
        <time>2015-11-15T14:52:57Z</time>
      </trkpt>
      <trkpt lat="43.61182" lon="3.70971">
        <ele>167.63</ele>
        <time>2015-11-15T14:52:58Z</time>
      </trkpt>
      <trkpt lat="43.61181" lon="3.70971">
        <ele>168.2</ele>
        <time>2015-11-15T14:52:59Z</time>
      </trkpt>
      <trkpt lat="43.61179" lon="3.70971">
        <ele>167.78</ele>
        <time>2015-11-15T14:53:00Z</time>
      </trkpt>
      <trkpt lat="43.61178" lon="3.7097">
        <ele>167.44</ele>
        <time>2015-11-15T14:53:01Z</time>
      </trkpt>
      <trkpt lat="43.61177" lon="3.70971">
        <ele>168.05</ele>
        <time>2015-11-15T14:53:02Z</time>
      </trkpt>
      <trkpt lat="43.61176" lon="3.70971">
        <ele>167.44</ele>
        <time>2015-11-15T14:53:03Z</time>
      </trkpt>
      <trkpt lat="43.61175" lon="3.70971">
        <ele>167.31</ele>
        <time>2015-11-15T14:53:04Z</time>
      </trkpt>
      <trkpt lat="43.61173" lon="3.7097">
        <ele>167.55</ele>
        <time>2015-11-15T14:53:05Z</time>
      </trkpt>
      <trkpt lat="43.61172" lon="3.7097">
        <ele>167.51</ele>
        <time>2015-11-15T14:53:06Z</time>
      </trkpt>
      <trkpt lat="43.61171" lon="3.7097">
        <ele>167.51</ele>
        <time>2015-11-15T14:53:07Z</time>
      </trkpt>
      <trkpt lat="43.6117" lon="3.7097">
        <ele>167.5</ele>
        <time>2015-11-15T14:53:08Z</time>
      </trkpt>
      <trkpt lat="43.61135" lon="3.70969">
        <ele>165.11</ele>
        <time>2015-11-15T14:53:37Z</time>
      </trkpt>
      <trkpt lat="43.61128" lon="3.70967">
        <ele>164.52</ele>
        <time>2015-11-15T14:53:43Z</time>
      </trkpt>
      <trkpt lat="43.61127" lon="3.70967">
        <ele>164.65</ele>
        <time>2015-11-15T14:53:44Z</time>
      </trkpt>
      <trkpt lat="43.61117" lon="3.70963">
        <ele>163.64</ele>
        <time>2015-11-15T14:53:53Z</time>
      </trkpt>
      <trkpt lat="43.61101" lon="3.70959">
        <ele>163.05</ele>
        <time>2015-11-15T14:54:07Z</time>
      </trkpt>
      <trkpt lat="43.61082" lon="3.70955">
        <ele>161.93</ele>
        <time>2015-11-15T14:54:21Z</time>
      </trkpt>
      <trkpt lat="43.61076" lon="3.70952">
        <ele>161.99</ele>
        <time>2015-11-15T14:54:26Z</time>
      </trkpt>
      <trkpt lat="43.61075" lon="3.70953">
        <ele>161.86</ele>
        <time>2015-11-15T14:54:27Z</time>
      </trkpt>
      <trkpt lat="43.61071" lon="3.70954">
        <ele>161.84</ele>
        <time>2015-11-15T14:54:30Z</time>
      </trkpt>
      <trkpt lat="43.6107" lon="3.70955">
        <ele>161.72</ele>
        <time>2015-11-15T14:54:31Z</time>
      </trkpt>
      <trkpt lat="43.61069" lon="3.70955">
        <ele>161.6</ele>
        <time>2015-11-15T14:54:32Z</time>
      </trkpt>
      <trkpt lat="43.61059" lon="3.70953">
        <ele>161.39</ele>
        <time>2015-11-15T14:54:41Z</time>
      </trkpt>
      <trkpt lat="43.61046" lon="3.70948">
        <ele>161.13</ele>
        <time>2015-11-15T14:54:53Z</time>
      </trkpt>
      <trkpt lat="43.61045" lon="3.70948">
        <ele>161.09</ele>
        <time>2015-11-15T14:54:54Z</time>
      </trkpt>
      <trkpt lat="43.61044" lon="3.70947">
        <ele>161.43</ele>
        <time>2015-11-15T14:54:55Z</time>
      </trkpt>
      <trkpt lat="43.61042" lon="3.70947">
        <ele>160.73</ele>
        <time>2015-11-15T14:54:56Z</time>
      </trkpt>
      <trkpt lat="43.61041" lon="3.70945">
        <ele>160.7</ele>
        <time>2015-11-15T14:54:57Z</time>
      </trkpt>
      <trkpt lat="43.6104" lon="3.70944">
        <ele>161.16</ele>
        <time>2015-11-15T14:54:58Z</time>
      </trkpt>
      <trkpt lat="43.61021" lon="3.70935">
        <ele>160.56</ele>
        <time>2015-11-15T14:55:14Z</time>
      </trkpt>
      <trkpt lat="43.61018" lon="3.70934">
        <ele>160.11</ele>
        <time>2015-11-15T14:55:16Z</time>
      </trkpt>
      <trkpt lat="43.61017" lon="3.70934">
        <ele>160.24</ele>
        <time>2015-11-15T14:55:17Z</time>
      </trkpt>
      <trkpt lat="43.61016" lon="3.70934">
        <ele>160.63</ele>
        <time>2015-11-15T14:55:18Z</time>
      </trkpt>
      <trkpt lat="43.61007" lon="3.70934">
        <ele>159.92</ele>
        <time>2015-11-15T14:55:25Z</time>
      </trkpt>
      <trkpt lat="43.61006" lon="3.70934">
        <ele>159.58</ele>
        <time>2015-11-15T14:55:26Z</time>
      </trkpt>
      <trkpt lat="43.61005" lon="3.70935">
        <ele>160.01</ele>
        <time>2015-11-15T14:55:27Z</time>
      </trkpt>
      <trkpt lat="43.61004" lon="3.70935">
        <ele>159.4</ele>
        <time>2015-11-15T14:55:28Z</time>
      </trkpt>
      <trkpt lat="43.61002" lon="3.70935">
        <ele>160.25</ele>
        <time>2015-11-15T14:55:29Z</time>
      </trkpt>
      <trkpt lat="43.60985" lon="3.70938">
        <ele>159</ele>
        <time>2015-11-15T14:55:44Z</time>
      </trkpt>
      <trkpt lat="43.60979" lon="3.7094">
        <ele>158.84</ele>
        <time>2015-11-15T14:55:51Z</time>
      </trkpt>
      <trkpt lat="43.60977" lon="3.70941">
        <ele>158.79</ele>
        <time>2015-11-15T14:55:52Z</time>
      </trkpt>
      <trkpt lat="43.60976" lon="3.70941">
        <ele>158.44</ele>
        <time>2015-11-15T14:55:53Z</time>
      </trkpt>
      <trkpt lat="43.60964" lon="3.70944">
        <ele>158.51</ele>
        <time>2015-11-15T14:56:05Z</time>
      </trkpt>
      <trkpt lat="43.6095" lon="3.70949">
        <ele>157.62</ele>
        <time>2015-11-15T14:56:21Z</time>
      </trkpt>
      <trkpt lat="43.60949" lon="3.7095">
        <ele>157.87</ele>
        <time>2015-11-15T14:56:22Z</time>
      </trkpt>
      <trkpt lat="43.60939" lon="3.70954">
        <ele>157.69</ele>
        <time>2015-11-15T14:56:31Z</time>
      </trkpt>
      <trkpt lat="43.60938" lon="3.70955">
        <ele>157.28</ele>
        <time>2015-11-15T14:56:32Z</time>
      </trkpt>
      <trkpt lat="43.60934" lon="3.70955">
        <ele>157.31</ele>
        <time>2015-11-15T14:56:35Z</time>
      </trkpt>
      <trkpt lat="43.60913" lon="3.70961">
        <ele>155.65</ele>
        <time>2015-11-15T14:56:53Z</time>
      </trkpt>
      <trkpt lat="43.609" lon="3.70982">
        <ele>156.99</ele>
        <time>2015-11-15T14:57:14Z</time>
      </trkpt>
      <trkpt lat="43.60887" lon="3.71002">
        <ele>159.17</ele>
        <time>2015-11-15T14:57:36Z</time>
      </trkpt>
      <trkpt lat="43.60876" lon="3.71019">
        <ele>161.03</ele>
        <time>2015-11-15T14:57:53Z</time>
      </trkpt>
      <trkpt lat="43.60866" lon="3.71042">
        <ele>161.59</ele>
        <time>2015-11-15T14:58:12Z</time>
      </trkpt>
      <trkpt lat="43.6086" lon="3.71059">
        <ele>162.27</ele>
        <time>2015-11-15T14:58:26Z</time>
      </trkpt>
      <trkpt lat="43.6086" lon="3.71062">
        <ele>162.34</ele>
        <time>2015-11-15T14:58:28Z</time>
      </trkpt>
      <trkpt lat="43.6086" lon="3.71067">
        <ele>162.7</ele>
        <time>2015-11-15T14:58:31Z</time>
      </trkpt>
      <trkpt lat="43.60858" lon="3.71097">
        <ele>161.91</ele>
        <time>2015-11-15T14:58:50Z</time>
      </trkpt>
      <trkpt lat="43.60855" lon="3.71112">
        <ele>162.06</ele>
        <time>2015-11-15T14:58:59Z</time>
      </trkpt>
      <trkpt lat="43.60855" lon="3.71114">
        <ele>161.84</ele>
        <time>2015-11-15T14:59:00Z</time>
      </trkpt>
      <trkpt lat="43.60855" lon="3.71128">
        <ele>161.3</ele>
        <time>2015-11-15T14:59:08Z</time>
      </trkpt>
      <trkpt lat="43.60854" lon="3.71159">
        <ele>161.52</ele>
        <time>2015-11-15T14:59:30Z</time>
      </trkpt>
      <trkpt lat="43.60853" lon="3.7119">
        <ele>161.58</ele>
        <time>2015-11-15T14:59:49Z</time>
      </trkpt>
      <trkpt lat="43.60858" lon="3.71226">
        <ele>162.81</ele>
        <time>2015-11-15T15:00:12Z</time>
      </trkpt>
      <trkpt lat="43.60861" lon="3.71252">
        <ele>162.44</ele>
        <time>2015-11-15T15:00:31Z</time>
      </trkpt>
      <trkpt lat="43.6086" lon="3.7128">
        <ele>162.53</ele>
        <time>2015-11-15T15:00:48Z</time>
      </trkpt>
      <trkpt lat="43.60857" lon="3.71315">
        <ele>162.78</ele>
        <time>2015-11-15T15:01:06Z</time>
      </trkpt>
      <trkpt lat="43.60857" lon="3.71316">
        <ele>162.78</ele>
        <time>2015-11-15T15:01:07Z</time>
      </trkpt>
      <trkpt lat="43.60854" lon="3.71337">
        <ele>163.51</ele>
        <time>2015-11-15T15:01:20Z</time>
      </trkpt>
      <trkpt lat="43.60853" lon="3.71358">
        <ele>163.43</ele>
        <time>2015-11-15T15:01:34Z</time>
      </trkpt>
      <trkpt lat="43.60852" lon="3.71382">
        <ele>163.95</ele>
        <time>2015-11-15T15:01:50Z</time>
      </trkpt>
      <trkpt lat="43.60849" lon="3.71411">
        <ele>165.6</ele>
        <time>2015-11-15T15:02:08Z</time>
      </trkpt>
      <trkpt lat="43.6085" lon="3.7144">
        <ele>165.75</ele>
        <time>2015-11-15T15:02:26Z</time>
      </trkpt>
      <trkpt lat="43.60852" lon="3.71456">
        <ele>166.2</ele>
        <time>2015-11-15T15:02:37Z</time>
      </trkpt>
      <trkpt lat="43.60853" lon="3.71478">
        <ele>166.78</ele>
        <time>2015-11-15T15:02:50Z</time>
      </trkpt>
      <trkpt lat="43.60855" lon="3.71497">
        <ele>166.98</ele>
        <time>2015-11-15T15:03:02Z</time>
      </trkpt>
      <trkpt lat="43.60856" lon="3.71498">
        <ele>166.59</ele>
        <time>2015-11-15T15:03:03Z</time>
      </trkpt>
      <trkpt lat="43.60856" lon="3.71502">
        <ele>166.6</ele>
        <time>2015-11-15T15:03:05Z</time>
      </trkpt>
      <trkpt lat="43.60857" lon="3.7151">
        <ele>167.19</ele>
        <time>2015-11-15T15:03:18Z</time>
      </trkpt>
      <trkpt lat="43.60857" lon="3.71518">
        <ele>166.33</ele>
        <time>2015-11-15T15:03:32Z</time>
      </trkpt>
      <trkpt lat="43.60859" lon="3.71523">
        <ele>166.39</ele>
        <time>2015-11-15T15:03:37Z</time>
      </trkpt>
      <trkpt lat="43.60859" lon="3.71525">
        <ele>166.1</ele>
        <time>2015-11-15T15:03:38Z</time>
      </trkpt>
      <trkpt lat="43.60862" lon="3.71533">
        <ele>165.97</ele>
        <time>2015-11-15T15:03:44Z</time>
      </trkpt>
      <trkpt lat="43.60862" lon="3.71534">
        <ele>165.92</ele>
        <time>2015-11-15T15:03:45Z</time>
      </trkpt>
      <trkpt lat="43.60863" lon="3.71536">
        <ele>166.16</ele>
        <time>2015-11-15T15:03:46Z</time>
      </trkpt>
      <trkpt lat="43.60865" lon="3.71556">
        <ele>165.76</ele>
        <time>2015-11-15T15:03:59Z</time>
      </trkpt>
      <trkpt lat="43.60865" lon="3.71563">
        <ele>165.62</ele>
        <time>2015-11-15T15:04:03Z</time>
      </trkpt>
      <trkpt lat="43.60865" lon="3.71576">
        <ele>165.67</ele>
        <time>2015-11-15T15:04:11Z</time>
      </trkpt>
      <trkpt lat="43.60864" lon="3.71581">
        <ele>165.72</ele>
        <time>2015-11-15T15:04:14Z</time>
      </trkpt>
      <trkpt lat="43.60864" lon="3.71583">
        <ele>165.39</ele>
        <time>2015-11-15T15:04:15Z</time>
      </trkpt>
      <trkpt lat="43.60864" lon="3.71603">
        <ele>165.42</ele>
        <time>2015-11-15T15:04:28Z</time>
      </trkpt>
      <trkpt lat="43.60862" lon="3.71624">
        <ele>165.51</ele>
        <time>2015-11-15T15:04:42Z</time>
      </trkpt>
      <trkpt lat="43.60861" lon="3.71636">
        <ele>165.59</ele>
        <time>2015-11-15T15:04:49Z</time>
      </trkpt>
      <trkpt lat="43.6086" lon="3.71656">
        <ele>165.99</ele>
        <time>2015-11-15T15:05:03Z</time>
      </trkpt>
      <trkpt lat="43.6086" lon="3.71683">
        <ele>166.45</ele>
        <time>2015-11-15T15:05:22Z</time>
      </trkpt>
      <trkpt lat="43.60858" lon="3.71696">
        <ele>166.81</ele>
        <time>2015-11-15T15:05:30Z</time>
      </trkpt>
      <trkpt lat="43.60857" lon="3.71698">
        <ele>166.65</ele>
        <time>2015-11-15T15:05:31Z</time>
      </trkpt>
      <trkpt lat="43.60856" lon="3.71699">
        <ele>166.9</ele>
        <time>2015-11-15T15:05:32Z</time>
      </trkpt>
      <trkpt lat="43.60855" lon="3.717">
        <ele>166.68</ele>
        <time>2015-11-15T15:05:33Z</time>
      </trkpt>
      <trkpt lat="43.60853" lon="3.71701">
        <ele>166.29</ele>
        <time>2015-11-15T15:05:34Z</time>
      </trkpt>
      <trkpt lat="43.60852" lon="3.71702">
        <ele>166.67</ele>
        <time>2015-11-15T15:05:35Z</time>
      </trkpt>
      <trkpt lat="43.6085" lon="3.71702">
        <ele>166.49</ele>
        <time>2015-11-15T15:05:36Z</time>
      </trkpt>
      <trkpt lat="43.60849" lon="3.71702">
        <ele>166.73</ele>
        <time>2015-11-15T15:05:37Z</time>
      </trkpt>
      <trkpt lat="43.60847" lon="3.71703">
        <ele>166.61</ele>
        <time>2015-11-15T15:05:38Z</time>
      </trkpt>
      <trkpt lat="43.60846" lon="3.71704">
        <ele>166.68</ele>
        <time>2015-11-15T15:05:39Z</time>
      </trkpt>
      <trkpt lat="43.60845" lon="3.71705">
        <ele>166.57</ele>
        <time>2015-11-15T15:05:40Z</time>
      </trkpt>
      <trkpt lat="43.60833" lon="3.71709">
        <ele>166.73</ele>
        <time>2015-11-15T15:05:49Z</time>
      </trkpt>
      <trkpt lat="43.60832" lon="3.71709">
        <ele>166.97</ele>
        <time>2015-11-15T15:05:50Z</time>
      </trkpt>
      <trkpt lat="43.60826" lon="3.71712">
        <ele>166.88</ele>
        <time>2015-11-15T15:05:55Z</time>
      </trkpt>
      <trkpt lat="43.60811" lon="3.71714">
        <ele>167.33</ele>
        <time>2015-11-15T15:06:11Z</time>
      </trkpt>
      <trkpt lat="43.60805" lon="3.71713">
        <ele>167.41</ele>
        <time>2015-11-15T15:06:17Z</time>
      </trkpt>
      <trkpt lat="43.6079" lon="3.71714">
        <ele>168.06</ele>
        <time>2015-11-15T15:06:34Z</time>
      </trkpt>
      <trkpt lat="43.60778" lon="3.71715">
        <ele>168.46</ele>
        <time>2015-11-15T15:06:46Z</time>
      </trkpt>
      <trkpt lat="43.60761" lon="3.71719">
        <ele>169.28</ele>
        <time>2015-11-15T15:07:01Z</time>
      </trkpt>
      <trkpt lat="43.60755" lon="3.71718">
        <ele>170.1</ele>
        <time>2015-11-15T15:07:15Z</time>
      </trkpt>
      <trkpt lat="43.60753" lon="3.71725">
        <ele>170.87</ele>
        <time>2015-11-15T15:07:37Z</time>
      </trkpt>
      <trkpt lat="43.60752" lon="3.71736">
        <ele>173.29</ele>
        <time>2015-11-15T15:07:56Z</time>
      </trkpt>
      <trkpt lat="43.60751" lon="3.71746">
        <ele>175.68</ele>
        <time>2015-11-15T15:08:08Z</time>
      </trkpt>
      <trkpt lat="43.60747" lon="3.7176">
        <ele>178.83</ele>
        <time>2015-11-15T15:08:21Z</time>
      </trkpt>
      <trkpt lat="43.60744" lon="3.71765">
        <ele>181.12</ele>
        <time>2015-11-15T15:08:34Z</time>
      </trkpt>
      <trkpt lat="43.60732" lon="3.71772">
        <ele>184.22</ele>
        <time>2015-11-15T15:08:57Z</time>
      </trkpt>
      <trkpt lat="43.60717" lon="3.71784">
        <ele>187.4</ele>
        <time>2015-11-15T15:09:21Z</time>
      </trkpt>
      <trkpt lat="43.60701" lon="3.71794">
        <ele>190.32</ele>
        <time>2015-11-15T15:09:44Z</time>
      </trkpt>
      <trkpt lat="43.60685" lon="3.718">
        <ele>193.09</ele>
        <time>2015-11-15T15:10:06Z</time>
      </trkpt>
      <trkpt lat="43.60672" lon="3.71809">
        <ele>195.06</ele>
        <time>2015-11-15T15:10:27Z</time>
      </trkpt>
      <trkpt lat="43.6066" lon="3.71823">
        <ele>197.57</ele>
        <time>2015-11-15T15:10:45Z</time>
      </trkpt>
      <trkpt lat="43.60657" lon="3.71834">
        <ele>199.62</ele>
        <time>2015-11-15T15:11:04Z</time>
      </trkpt>
      <trkpt lat="43.60658" lon="3.71833">
        <ele>199.21</ele>
        <time>2015-11-15T15:11:28Z</time>
      </trkpt>
      <trkpt lat="43.60658" lon="3.71834">
        <ele>199.5</ele>
        <time>2015-11-15T15:11:58Z</time>
      </trkpt>
      <trkpt lat="43.60657" lon="3.71834">
        <ele>199.27</ele>
        <time>2015-11-15T15:12:20Z</time>
      </trkpt>
      <trkpt lat="43.60657" lon="3.71832">
        <ele>198.78</ele>
        <time>2015-11-15T15:12:49Z</time>
      </trkpt>
      <trkpt lat="43.60656" lon="3.71832">
        <ele>198.81</ele>
        <time>2015-11-15T15:13:14Z</time>
      </trkpt>
      <trkpt lat="43.60657" lon="3.7183">
        <ele>199.21</ele>
        <time>2015-11-15T15:13:39Z</time>
      </trkpt>
      <trkpt lat="43.60656" lon="3.71833">
        <ele>198.89</ele>
        <time>2015-11-15T15:14:16Z</time>
      </trkpt>
      <trkpt lat="43.60658" lon="3.71832">
        <ele>199.27</ele>
        <time>2015-11-15T15:14:37Z</time>
      </trkpt>
      <trkpt lat="43.60657" lon="3.71832">
        <ele>199.05</ele>
        <time>2015-11-15T15:15:07Z</time>
      </trkpt>
      <trkpt lat="43.60655" lon="3.71836">
        <ele>198.72</ele>
        <time>2015-11-15T15:15:41Z</time>
      </trkpt>
      <trkpt lat="43.60655" lon="3.71835">
        <ele>198.71</ele>
        <time>2015-11-15T15:16:16Z</time>
      </trkpt>
      <trkpt lat="43.60656" lon="3.71833">
        <ele>198.58</ele>
        <time>2015-11-15T15:16:49Z</time>
      </trkpt>
      <trkpt lat="43.60656" lon="3.71834">
        <ele>198.6</ele>
        <time>2015-11-15T15:17:22Z</time>
      </trkpt>
      <trkpt lat="43.60655" lon="3.71833">
        <ele>198.38</ele>
        <time>2015-11-15T15:17:56Z</time>
      </trkpt>
      <trkpt lat="43.60656" lon="3.71829">
        <ele>198.4</ele>
        <time>2015-11-15T15:18:21Z</time>
      </trkpt>
      <trkpt lat="43.60657" lon="3.71826">
        <ele>198.12</ele>
        <time>2015-11-15T15:18:49Z</time>
      </trkpt>
      <trkpt lat="43.60657" lon="3.71831">
        <ele>197.83</ele>
        <time>2015-11-15T15:19:19Z</time>
      </trkpt>
      <trkpt lat="43.60658" lon="3.71834">
        <ele>198.31</ele>
        <time>2015-11-15T15:19:50Z</time>
      </trkpt>
      <trkpt lat="43.60662" lon="3.71839">
        <ele>197.86</ele>
        <time>2015-11-15T15:20:18Z</time>
      </trkpt>
      <trkpt lat="43.6066" lon="3.71834">
        <ele>197.65</ele>
        <time>2015-11-15T15:20:51Z</time>
      </trkpt>
      <trkpt lat="43.60659" lon="3.71835">
        <ele>198.53</ele>
        <time>2015-11-15T15:21:23Z</time>
      </trkpt>
      <trkpt lat="43.60659" lon="3.71832">
        <ele>198.44</ele>
        <time>2015-11-15T15:21:53Z</time>
      </trkpt>
      <trkpt lat="43.60663" lon="3.71836">
        <ele>198.47</ele>
        <time>2015-11-15T15:22:22Z</time>
      </trkpt>
      <trkpt lat="43.60665" lon="3.71839">
        <ele>199.18</ele>
        <time>2015-11-15T15:22:48Z</time>
      </trkpt>
      <trkpt lat="43.60669" lon="3.71866">
        <ele>200.34</ele>
        <time>2015-11-15T15:23:12Z</time>
      </trkpt>
      <trkpt lat="43.60672" lon="3.71881">
        <ele>201.06</ele>
        <time>2015-11-15T15:23:24Z</time>
      </trkpt>
      <trkpt lat="43.60674" lon="3.71909">
        <ele>200.58</ele>
        <time>2015-11-15T15:23:46Z</time>
      </trkpt>
      <trkpt lat="43.60675" lon="3.71914">
        <ele>200.18</ele>
        <time>2015-11-15T15:23:50Z</time>
      </trkpt>
      <trkpt lat="43.60678" lon="3.71931">
        <ele>199.26</ele>
        <time>2015-11-15T15:24:03Z</time>
      </trkpt>
      <trkpt lat="43.60681" lon="3.71944">
        <ele>198.2</ele>
        <time>2015-11-15T15:24:12Z</time>
      </trkpt>
      <trkpt lat="43.60686" lon="3.71967">
        <ele>195.68</ele>
        <time>2015-11-15T15:24:28Z</time>
      </trkpt>
      <trkpt lat="43.60695" lon="3.71985">
        <ele>194.28</ele>
        <time>2015-11-15T15:24:44Z</time>
      </trkpt>
      <trkpt lat="43.60708" lon="3.72002">
        <ele>191.52</ele>
        <time>2015-11-15T15:25:02Z</time>
      </trkpt>
      <trkpt lat="43.60714" lon="3.7201">
        <ele>190.28</ele>
        <time>2015-11-15T15:25:11Z</time>
      </trkpt>
      <trkpt lat="43.60723" lon="3.72027">
        <ele>188.4</ele>
        <time>2015-11-15T15:25:25Z</time>
      </trkpt>
      <trkpt lat="43.60727" lon="3.72052">
        <ele>187.03</ele>
        <time>2015-11-15T15:25:43Z</time>
      </trkpt>
      <trkpt lat="43.60725" lon="3.72076">
        <ele>185.1</ele>
        <time>2015-11-15T15:25:59Z</time>
      </trkpt>
      <trkpt lat="43.60724" lon="3.72102">
        <ele>183.52</ele>
        <time>2015-11-15T15:26:17Z</time>
      </trkpt>
      <trkpt lat="43.60724" lon="3.72128">
        <ele>181.49</ele>
        <time>2015-11-15T15:26:35Z</time>
      </trkpt>
      <trkpt lat="43.60728" lon="3.72155">
        <ele>180.05</ele>
        <time>2015-11-15T15:26:53Z</time>
      </trkpt>
      <trkpt lat="43.60733" lon="3.72181">
        <ele>177.38</ele>
        <time>2015-11-15T15:27:11Z</time>
      </trkpt>
      <trkpt lat="43.60734" lon="3.72208">
        <ele>175.05</ele>
        <time>2015-11-15T15:27:29Z</time>
      </trkpt>
      <trkpt lat="43.6073" lon="3.72235">
        <ele>174.75</ele>
        <time>2015-11-15T15:27:45Z</time>
      </trkpt>
      <trkpt lat="43.6073" lon="3.7225">
        <ele>173.99</ele>
        <time>2015-11-15T15:27:56Z</time>
      </trkpt>
      <trkpt lat="43.60728" lon="3.72259">
        <ele>173.76</ele>
        <time>2015-11-15T15:28:02Z</time>
      </trkpt>
      <trkpt lat="43.60727" lon="3.7226">
        <ele>173.49</ele>
        <time>2015-11-15T15:28:03Z</time>
      </trkpt>
      <trkpt lat="43.6072" lon="3.7228">
        <ele>173.14</ele>
        <time>2015-11-15T15:28:18Z</time>
      </trkpt>
      <trkpt lat="43.60716" lon="3.72301">
        <ele>172.29</ele>
        <time>2015-11-15T15:28:31Z</time>
      </trkpt>
      <trkpt lat="43.60716" lon="3.72305">
        <ele>172.15</ele>
        <time>2015-11-15T15:28:34Z</time>
      </trkpt>
      <trkpt lat="43.60711" lon="3.72331">
        <ele>170.64</ele>
        <time>2015-11-15T15:28:50Z</time>
      </trkpt>
      <trkpt lat="43.60717" lon="3.72345">
        <ele>168.65</ele>
        <time>2015-11-15T15:29:05Z</time>
      </trkpt>
      <trkpt lat="43.60717" lon="3.72345">
        <ele>168.38</ele>
        <time>2015-11-15T15:29:06Z</time>
      </trkpt>
      <trkpt lat="43.60722" lon="3.7235">
        <ele>167.54</ele>
        <time>2015-11-15T15:29:12Z</time>
      </trkpt>
      <trkpt lat="43.60729" lon="3.72368">
        <ele>165.35</ele>
        <time>2015-11-15T15:29:28Z</time>
      </trkpt>
      <trkpt lat="43.60744" lon="3.72394">
        <ele>162.8</ele>
        <time>2015-11-15T15:29:50Z</time>
      </trkpt>
      <trkpt lat="43.60754" lon="3.72416">
        <ele>161.78</ele>
        <time>2015-11-15T15:30:05Z</time>
      </trkpt>
      <trkpt lat="43.6076" lon="3.72435">
        <ele>160.85</ele>
        <time>2015-11-15T15:30:17Z</time>
      </trkpt>
      <trkpt lat="43.60761" lon="3.72449">
        <ele>160.08</ele>
        <time>2015-11-15T15:30:30Z</time>
      </trkpt>
      <trkpt lat="43.60769" lon="3.72476">
        <ele>159.04</ele>
        <time>2015-11-15T15:30:52Z</time>
      </trkpt>
      <trkpt lat="43.60771" lon="3.72489">
        <ele>158.5</ele>
        <time>2015-11-15T15:31:07Z</time>
      </trkpt>
      <trkpt lat="43.60777" lon="3.72507">
        <ele>157.41</ele>
        <time>2015-11-15T15:31:34Z</time>
      </trkpt>
      <trkpt lat="43.6078" lon="3.72519">
        <ele>156.41</ele>
        <time>2015-11-15T15:31:42Z</time>
      </trkpt>
      <trkpt lat="43.60784" lon="3.72541">
        <ele>156.16</ele>
        <time>2015-11-15T15:31:57Z</time>
      </trkpt>
      <trkpt lat="43.60793" lon="3.72568">
        <ele>155.06</ele>
        <time>2015-11-15T15:32:17Z</time>
      </trkpt>
      <trkpt lat="43.60799" lon="3.72586">
        <ele>154.73</ele>
        <time>2015-11-15T15:32:30Z</time>
      </trkpt>
      <trkpt lat="43.60804" lon="3.72612">
        <ele>153.65</ele>
        <time>2015-11-15T15:32:47Z</time>
      </trkpt>
      <trkpt lat="43.60807" lon="3.72628">
        <ele>152.96</ele>
        <time>2015-11-15T15:32:59Z</time>
      </trkpt>
      <trkpt lat="43.60811" lon="3.72642">
        <ele>152.63</ele>
        <time>2015-11-15T15:33:10Z</time>
      </trkpt>
      <trkpt lat="43.60816" lon="3.72682">
        <ele>151.66</ele>
        <time>2015-11-15T15:33:36Z</time>
      </trkpt>
      <trkpt lat="43.60821" lon="3.72706">
        <ele>150.99</ele>
        <time>2015-11-15T15:33:51Z</time>
      </trkpt>
      <trkpt lat="43.60822" lon="3.72709">
        <ele>150.85</ele>
        <time>2015-11-15T15:33:53Z</time>
      </trkpt>
      <trkpt lat="43.60827" lon="3.72727">
        <ele>151.1</ele>
        <time>2015-11-15T15:34:06Z</time>
      </trkpt>
      <trkpt lat="43.60829" lon="3.72733">
        <ele>150.08</ele>
        <time>2015-11-15T15:34:11Z</time>
      </trkpt>
      <trkpt lat="43.60829" lon="3.72736">
        <ele>150.12</ele>
        <time>2015-11-15T15:34:13Z</time>
      </trkpt>
      <trkpt lat="43.60836" lon="3.72755">
        <ele>150.19</ele>
        <time>2015-11-15T15:34:27Z</time>
      </trkpt>
      <trkpt lat="43.60844" lon="3.72781">
        <ele>149.23</ele>
        <time>2015-11-15T15:34:44Z</time>
      </trkpt>
      <trkpt lat="43.60847" lon="3.72792">
        <ele>149.53</ele>
        <time>2015-11-15T15:34:58Z</time>
      </trkpt>
      <trkpt lat="43.60851" lon="3.72798">
        <ele>150.35</ele>
        <time>2015-11-15T15:35:17Z</time>
      </trkpt>
      <trkpt lat="43.60852" lon="3.72799">
        <ele>149.95</ele>
        <time>2015-11-15T15:35:18Z</time>
      </trkpt>
      <trkpt lat="43.60853" lon="3.72799">
        <ele>150.22</ele>
        <time>2015-11-15T15:35:19Z</time>
      </trkpt>
      <trkpt lat="43.60869" lon="3.72811">
        <ele>150.48</ele>
        <time>2015-11-15T15:35:37Z</time>
      </trkpt>
      <trkpt lat="43.60872" lon="3.72815">
        <ele>151.53</ele>
        <time>2015-11-15T15:35:41Z</time>
      </trkpt>
      <trkpt lat="43.60877" lon="3.72834">
        <ele>152.98</ele>
        <time>2015-11-15T15:35:58Z</time>
      </trkpt>
      <trkpt lat="43.60881" lon="3.72861">
        <ele>154.99</ele>
        <time>2015-11-15T15:36:19Z</time>
      </trkpt>
      <trkpt lat="43.60881" lon="3.72867">
        <ele>156.4</ele>
        <time>2015-11-15T15:36:23Z</time>
      </trkpt>
      <trkpt lat="43.6088" lon="3.72888">
        <ele>158.84</ele>
        <time>2015-11-15T15:36:39Z</time>
      </trkpt>
      <trkpt lat="43.60883" lon="3.72909">
        <ele>160.48</ele>
        <time>2015-11-15T15:36:58Z</time>
      </trkpt>
      <trkpt lat="43.60883" lon="3.72934">
        <ele>162.32</ele>
        <time>2015-11-15T15:37:19Z</time>
      </trkpt>
      <trkpt lat="43.6088" lon="3.72959">
        <ele>163.4</ele>
        <time>2015-11-15T15:37:41Z</time>
      </trkpt>
      <trkpt lat="43.60882" lon="3.72971">
        <ele>163.45</ele>
        <time>2015-11-15T15:38:03Z</time>
      </trkpt>
      <trkpt lat="43.60883" lon="3.72972">
        <ele>163.66</ele>
        <time>2015-11-15T15:38:30Z</time>
      </trkpt>
      <trkpt lat="43.60885" lon="3.72973">
        <ele>163.76</ele>
        <time>2015-11-15T15:38:59Z</time>
      </trkpt>
      <trkpt lat="43.60877" lon="3.72969">
        <ele>163.09</ele>
        <time>2015-11-15T15:39:26Z</time>
      </trkpt>
      <trkpt lat="43.60876" lon="3.72961">
        <ele>162.43</ele>
        <time>2015-11-15T15:39:44Z</time>
      </trkpt>
      <trkpt lat="43.60879" lon="3.72945">
        <ele>161.48</ele>
        <time>2015-11-15T15:40:03Z</time>
      </trkpt>
      <trkpt lat="43.60871" lon="3.72937">
        <ele>159.95</ele>
        <time>2015-11-15T15:40:15Z</time>
      </trkpt>
      <trkpt lat="43.6087" lon="3.72936">
        <ele>159.74</ele>
        <time>2015-11-15T15:40:16Z</time>
      </trkpt>
      <trkpt lat="43.60869" lon="3.72936">
        <ele>159.31</ele>
        <time>2015-11-15T15:40:17Z</time>
      </trkpt>
      <trkpt lat="43.60875" lon="3.72931">
        <ele>161.12</ele>
        <time>2015-11-15T15:40:31Z</time>
      </trkpt>
      <trkpt lat="43.60876" lon="3.72923">
        <ele>160.49</ele>
        <time>2015-11-15T15:40:36Z</time>
      </trkpt>
      <trkpt lat="43.60881" lon="3.72912">
        <ele>160.11</ele>
        <time>2015-11-15T15:40:47Z</time>
      </trkpt>
      <trkpt lat="43.60885" lon="3.72909">
        <ele>160.59</ele>
        <time>2015-11-15T15:40:52Z</time>
      </trkpt>
      <trkpt lat="43.60893" lon="3.72903">
        <ele>160.92</ele>
        <time>2015-11-15T15:41:02Z</time>
      </trkpt>
      <trkpt lat="43.609" lon="3.72905">
        <ele>162.2</ele>
        <time>2015-11-15T15:41:14Z</time>
      </trkpt>
      <trkpt lat="43.60903" lon="3.72913">
        <ele>164.14</ele>
        <time>2015-11-15T15:41:20Z</time>
      </trkpt>
      <trkpt lat="43.60909" lon="3.72916">
        <ele>165.27</ele>
        <time>2015-11-15T15:41:26Z</time>
      </trkpt>
      <trkpt lat="43.60915" lon="3.72925">
        <ele>167.53</ele>
        <time>2015-11-15T15:41:37Z</time>
      </trkpt>
      <trkpt lat="43.6092" lon="3.72935">
        <ele>169.17</ele>
        <time>2015-11-15T15:41:45Z</time>
      </trkpt>
      <trkpt lat="43.60924" lon="3.72943">
        <ele>172.2</ele>
        <time>2015-11-15T15:41:58Z</time>
      </trkpt>
      <trkpt lat="43.60936" lon="3.72954">
        <ele>175.72</ele>
        <time>2015-11-15T15:42:17Z</time>
      </trkpt>
      <trkpt lat="43.60949" lon="3.72962">
        <ele>179.17</ele>
        <time>2015-11-15T15:42:37Z</time>
      </trkpt>
      <trkpt lat="43.60949" lon="3.72963">
        <ele>178.79</ele>
        <time>2015-11-15T15:42:38Z</time>
      </trkpt>
      <trkpt lat="43.6095" lon="3.72978">
        <ele>180.76</ele>
        <time>2015-11-15T15:42:58Z</time>
      </trkpt>
      <trkpt lat="43.60942" lon="3.72999">
        <ele>180.42</ele>
        <time>2015-11-15T15:43:19Z</time>
      </trkpt>
      <trkpt lat="43.6094" lon="3.73017">
        <ele>179.77</ele>
        <time>2015-11-15T15:43:35Z</time>
      </trkpt>
      <trkpt lat="43.60941" lon="3.7303">
        <ele>180.17</ele>
        <time>2015-11-15T15:43:43Z</time>
      </trkpt>
      <trkpt lat="43.60942" lon="3.73049">
        <ele>179.57</ele>
        <time>2015-11-15T15:43:54Z</time>
      </trkpt>
      <trkpt lat="43.6095" lon="3.73074">
        <ele>179.09</ele>
        <time>2015-11-15T15:44:09Z</time>
      </trkpt>
      <trkpt lat="43.60956" lon="3.73091">
        <ele>179.03</ele>
        <time>2015-11-15T15:44:20Z</time>
      </trkpt>
      <trkpt lat="43.6096" lon="3.73098">
        <ele>179</ele>
        <time>2015-11-15T15:44:26Z</time>
      </trkpt>
      <trkpt lat="43.60967" lon="3.73114">
        <ele>178.93</ele>
        <time>2015-11-15T15:44:37Z</time>
      </trkpt>
      <trkpt lat="43.60974" lon="3.73127">
        <ele>175.9</ele>
        <time>2015-11-15T15:44:51Z</time>
      </trkpt>
      <trkpt lat="43.60986" lon="3.73145">
        <ele>175.53</ele>
        <time>2015-11-15T15:45:05Z</time>
      </trkpt>
      <trkpt lat="43.60989" lon="3.73151">
        <ele>175.64</ele>
        <time>2015-11-15T15:45:09Z</time>
      </trkpt>
      <trkpt lat="43.61002" lon="3.7318">
        <ele>175.83</ele>
        <time>2015-11-15T15:45:26Z</time>
      </trkpt>
      <trkpt lat="43.61005" lon="3.73188">
        <ele>175.86</ele>
        <time>2015-11-15T15:45:34Z</time>
      </trkpt>
      <trkpt lat="43.61005" lon="3.73202">
        <ele>175.2</ele>
        <time>2015-11-15T15:45:53Z</time>
      </trkpt>
      <trkpt lat="43.61007" lon="3.73206">
        <ele>175.31</ele>
        <time>2015-11-15T15:46:04Z</time>
      </trkpt>
      <trkpt lat="43.61008" lon="3.73211">
        <ele>175.74</ele>
        <time>2015-11-15T15:46:08Z</time>
      </trkpt>
      <trkpt lat="43.61009" lon="3.73241">
        <ele>175.5</ele>
        <time>2015-11-15T15:46:27Z</time>
      </trkpt>
      <trkpt lat="43.61007" lon="3.73269">
        <ele>175.04</ele>
        <time>2015-11-15T15:46:47Z</time>
      </trkpt>
      <trkpt lat="43.61006" lon="3.73277">
        <ele>174.82</ele>
        <time>2015-11-15T15:46:52Z</time>
      </trkpt>
      <trkpt lat="43.61008" lon="3.73293">
        <ele>175.11</ele>
        <time>2015-11-15T15:47:06Z</time>
      </trkpt>
      <trkpt lat="43.61005" lon="3.73311">
        <ele>173.53</ele>
        <time>2015-11-15T15:47:25Z</time>
      </trkpt>
      <trkpt lat="43.60995" lon="3.73315">
        <ele>170.56</ele>
        <time>2015-11-15T15:47:36Z</time>
      </trkpt>
      <trkpt lat="43.60992" lon="3.73319">
        <ele>169.76</ele>
        <time>2015-11-15T15:47:39Z</time>
      </trkpt>
      <trkpt lat="43.60985" lon="3.73329">
        <ele>168.39</ele>
        <time>2015-11-15T15:47:47Z</time>
      </trkpt>
      <trkpt lat="43.6098" lon="3.73331">
        <ele>167.39</ele>
        <time>2015-11-15T15:47:52Z</time>
      </trkpt>
      <trkpt lat="43.60963" lon="3.73336">
        <ele>164.71</ele>
        <time>2015-11-15T15:48:10Z</time>
      </trkpt>
      <trkpt lat="43.60962" lon="3.73336">
        <ele>164.44</ele>
        <time>2015-11-15T15:48:11Z</time>
      </trkpt>
      <trkpt lat="43.60953" lon="3.73344">
        <ele>161.53</ele>
        <time>2015-11-15T15:48:28Z</time>
      </trkpt>
      <trkpt lat="43.60952" lon="3.73345">
        <ele>160.8</ele>
        <time>2015-11-15T15:48:30Z</time>
      </trkpt>
      <trkpt lat="43.60941" lon="3.73348">
        <ele>159.18</ele>
        <time>2015-11-15T15:48:48Z</time>
      </trkpt>
      <trkpt lat="43.60935" lon="3.73349">
        <ele>156.11</ele>
        <time>2015-11-15T15:48:56Z</time>
      </trkpt>
      <trkpt lat="43.60924" lon="3.73342">
        <ele>152.95</ele>
        <time>2015-11-15T15:49:14Z</time>
      </trkpt>
      <trkpt lat="43.60915" lon="3.73333">
        <ele>150.27</ele>
        <time>2015-11-15T15:49:34Z</time>
      </trkpt>
      <trkpt lat="43.60907" lon="3.7332">
        <ele>147.16</ele>
        <time>2015-11-15T15:49:48Z</time>
      </trkpt>
      <trkpt lat="43.60905" lon="3.73315">
        <ele>146.34</ele>
        <time>2015-11-15T15:49:53Z</time>
      </trkpt>
      <trkpt lat="43.60898" lon="3.73296">
        <ele>143.21</ele>
        <time>2015-11-15T15:50:11Z</time>
      </trkpt>
      <trkpt lat="43.60892" lon="3.73286">
        <ele>141.81</ele>
        <time>2015-11-15T15:50:19Z</time>
      </trkpt>
      <trkpt lat="43.60886" lon="3.7328">
        <ele>140.25</ele>
        <time>2015-11-15T15:50:37Z</time>
      </trkpt>
      <trkpt lat="43.60886" lon="3.73281">
        <ele>140.73</ele>
        <time>2015-11-15T15:51:02Z</time>
      </trkpt>
      <trkpt lat="43.60883" lon="3.73292">
        <ele>140.05</ele>
        <time>2015-11-15T15:51:17Z</time>
      </trkpt>
      <trkpt lat="43.60882" lon="3.73316">
        <ele>140.28</ele>
        <time>2015-11-15T15:51:34Z</time>
      </trkpt>
      <trkpt lat="43.60881" lon="3.73338">
        <ele>139.56</ele>
        <time>2015-11-15T15:51:50Z</time>
      </trkpt>
      <trkpt lat="43.60882" lon="3.73344">
        <ele>140.19</ele>
        <time>2015-11-15T15:51:54Z</time>
      </trkpt>
      <trkpt lat="43.60882" lon="3.73352">
        <ele>139.73</ele>
        <time>2015-11-15T15:52:03Z</time>
      </trkpt>
      <trkpt lat="43.60886" lon="3.73381">
        <ele>139.86</ele>
        <time>2015-11-15T15:52:21Z</time>
      </trkpt>
      <trkpt lat="43.60888" lon="3.73386">
        <ele>139.36</ele>
        <time>2015-11-15T15:52:24Z</time>
      </trkpt>
      <trkpt lat="43.60895" lon="3.7339">
        <ele>140.66</ele>
        <time>2015-11-15T15:52:38Z</time>
      </trkpt>
      <trkpt lat="43.60907" lon="3.73397">
        <ele>141.64</ele>
        <time>2015-11-15T15:52:59Z</time>
      </trkpt>
      <trkpt lat="43.60917" lon="3.73406">
        <ele>141.61</ele>
        <time>2015-11-15T15:53:16Z</time>
      </trkpt>
      <trkpt lat="43.60913" lon="3.73418">
        <ele>141.39</ele>
        <time>2015-11-15T15:53:34Z</time>
      </trkpt>
      <trkpt lat="43.60917" lon="3.73424">
        <ele>141.02</ele>
        <time>2015-11-15T15:53:55Z</time>
      </trkpt>
      <trkpt lat="43.60928" lon="3.73425">
        <ele>141.65</ele>
        <time>2015-11-15T15:54:11Z</time>
      </trkpt>
      <trkpt lat="43.6094" lon="3.73431">
        <ele>141.45</ele>
        <time>2015-11-15T15:54:31Z</time>
      </trkpt>
      <trkpt lat="43.60939" lon="3.73434">
        <ele>141.91</ele>
        <time>2015-11-15T15:54:49Z</time>
      </trkpt>
      <trkpt lat="43.60941" lon="3.73443">
        <ele>141.62</ele>
        <time>2015-11-15T15:55:14Z</time>
      </trkpt>
      <trkpt lat="43.60942" lon="3.73443">
        <ele>141.81</ele>
        <time>2015-11-15T15:55:41Z</time>
      </trkpt>
      <trkpt lat="43.60946" lon="3.73442">
        <ele>142.27</ele>
        <time>2015-11-15T15:56:14Z</time>
      </trkpt>
      <trkpt lat="43.60947" lon="3.73445">
        <ele>141.65</ele>
        <time>2015-11-15T15:56:31Z</time>
      </trkpt>
      <trkpt lat="43.60942" lon="3.73454">
        <ele>141.9</ele>
        <time>2015-11-15T15:56:48Z</time>
      </trkpt>
      <trkpt lat="43.60933" lon="3.73468">
        <ele>141.67</ele>
        <time>2015-11-15T15:57:06Z</time>
      </trkpt>
      <trkpt lat="43.6092" lon="3.73485">
        <ele>141.1</ele>
        <time>2015-11-15T15:57:27Z</time>
      </trkpt>
      <trkpt lat="43.60916" lon="3.73502">
        <ele>141.7</ele>
        <time>2015-11-15T15:57:44Z</time>
      </trkpt>
      <trkpt lat="43.60914" lon="3.73501">
        <ele>141.75</ele>
        <time>2015-11-15T15:57:57Z</time>
      </trkpt>
      <trkpt lat="43.60917" lon="3.73505">
        <ele>141.54</ele>
        <time>2015-11-15T15:58:20Z</time>
      </trkpt>
      <trkpt lat="43.60916" lon="3.73512">
        <ele>141.76</ele>
        <time>2015-11-15T15:58:36Z</time>
      </trkpt>
      <trkpt lat="43.60909" lon="3.73523">
        <ele>140.88</ele>
        <time>2015-11-15T15:58:56Z</time>
      </trkpt>
      <trkpt lat="43.60903" lon="3.73524">
        <ele>141.09</ele>
        <time>2015-11-15T15:59:15Z</time>
      </trkpt>
      <trkpt lat="43.60907" lon="3.73523">
        <ele>141.11</ele>
        <time>2015-11-15T15:59:35Z</time>
      </trkpt>
      <trkpt lat="43.60909" lon="3.73538">
        <ele>140.48</ele>
        <time>2015-11-15T15:59:48Z</time>
      </trkpt>
      <trkpt lat="43.60915" lon="3.7356">
        <ele>139.22</ele>
        <time>2015-11-15T16:00:07Z</time>
      </trkpt>
      <trkpt lat="43.60921" lon="3.73579">
        <ele>137.75</ele>
        <time>2015-11-15T16:00:24Z</time>
      </trkpt>
      <trkpt lat="43.60931" lon="3.73608">
        <ele>135.93</ele>
        <time>2015-11-15T16:00:48Z</time>
      </trkpt>
      <trkpt lat="43.6094" lon="3.73625">
        <ele>135.42</ele>
        <time>2015-11-15T16:01:04Z</time>
      </trkpt>
      <trkpt lat="43.60958" lon="3.7362">
        <ele>136.03</ele>
        <time>2015-11-15T16:01:23Z</time>
      </trkpt>
      <trkpt lat="43.60975" lon="3.7361">
        <ele>137.22</ele>
        <time>2015-11-15T16:01:40Z</time>
      </trkpt>
      <trkpt lat="43.60988" lon="3.73602">
        <ele>138.04</ele>
        <time>2015-11-15T16:01:54Z</time>
      </trkpt>
      <trkpt lat="43.60996" lon="3.73596">
        <ele>138.95</ele>
        <time>2015-11-15T16:02:03Z</time>
      </trkpt>
      <trkpt lat="43.60998" lon="3.73594">
        <ele>139.15</ele>
        <time>2015-11-15T16:02:06Z</time>
      </trkpt>
      <trkpt lat="43.61013" lon="3.73591">
        <ele>140.52</ele>
        <time>2015-11-15T16:02:20Z</time>
      </trkpt>
      <trkpt lat="43.61027" lon="3.73589">
        <ele>141.65</ele>
        <time>2015-11-15T16:02:35Z</time>
      </trkpt>
      <trkpt lat="43.61038" lon="3.73588">
        <ele>143.33</ele>
        <time>2015-11-15T16:02:48Z</time>
      </trkpt>
      <trkpt lat="43.61054" lon="3.73593">
        <ele>143.89</ele>
        <time>2015-11-15T16:03:03Z</time>
      </trkpt>
      <trkpt lat="43.61073" lon="3.73594">
        <ele>145.11</ele>
        <time>2015-11-15T16:03:19Z</time>
      </trkpt>
      <trkpt lat="43.61092" lon="3.736">
        <ele>145.87</ele>
        <time>2015-11-15T16:03:35Z</time>
      </trkpt>
      <trkpt lat="43.61108" lon="3.73603">
        <ele>146.99</ele>
        <time>2015-11-15T16:03:50Z</time>
      </trkpt>
      <trkpt lat="43.6111" lon="3.73603">
        <ele>147.09</ele>
        <time>2015-11-15T16:03:52Z</time>
      </trkpt>
      <trkpt lat="43.61117" lon="3.73608">
        <ele>147.59</ele>
        <time>2015-11-15T16:04:00Z</time>
      </trkpt>
      <trkpt lat="43.6113" lon="3.73622">
        <ele>147.66</ele>
        <time>2015-11-15T16:04:14Z</time>
      </trkpt>
      <trkpt lat="43.61142" lon="3.73634">
        <ele>147.56</ele>
        <time>2015-11-15T16:04:26Z</time>
      </trkpt>
      <trkpt lat="43.6116" lon="3.73646">
        <ele>148.35</ele>
        <time>2015-11-15T16:04:42Z</time>
      </trkpt>
      <trkpt lat="43.61163" lon="3.73648">
        <ele>147.39</ele>
        <time>2015-11-15T16:04:46Z</time>
      </trkpt>
      <trkpt lat="43.61167" lon="3.73652">
        <ele>147.43</ele>
        <time>2015-11-15T16:04:50Z</time>
      </trkpt>
      <trkpt lat="43.61169" lon="3.73654">
        <ele>147.35</ele>
        <time>2015-11-15T16:04:52Z</time>
      </trkpt>
      <trkpt lat="43.61177" lon="3.73674">
        <ele>146.36</ele>
        <time>2015-11-15T16:05:06Z</time>
      </trkpt>
      <trkpt lat="43.61181" lon="3.73686">
        <ele>145.42</ele>
        <time>2015-11-15T16:05:25Z</time>
      </trkpt>
      <trkpt lat="43.61186" lon="3.73689">
        <ele>144.37</ele>
        <time>2015-11-15T16:05:42Z</time>
      </trkpt>
      <trkpt lat="43.61194" lon="3.73692">
        <ele>143.98</ele>
        <time>2015-11-15T16:05:48Z</time>
      </trkpt>
      <trkpt lat="43.61211" lon="3.73698">
        <ele>142.01</ele>
        <time>2015-11-15T16:06:02Z</time>
      </trkpt>
      <trkpt lat="43.61217" lon="3.73699">
        <ele>141.77</ele>
        <time>2015-11-15T16:06:07Z</time>
      </trkpt>
      <trkpt lat="43.61226" lon="3.73703">
        <ele>140.98</ele>
        <time>2015-11-15T16:06:15Z</time>
      </trkpt>
      <trkpt lat="43.61233" lon="3.73709">
        <ele>139.99</ele>
        <time>2015-11-15T16:06:22Z</time>
      </trkpt>
      <trkpt lat="43.61237" lon="3.73712">
        <ele>139.7</ele>
        <time>2015-11-15T16:06:26Z</time>
      </trkpt>
      <trkpt lat="43.61244" lon="3.73714">
        <ele>138.42</ele>
        <time>2015-11-15T16:06:33Z</time>
      </trkpt>
      <trkpt lat="43.6126" lon="3.73721">
        <ele>137.14</ele>
        <time>2015-11-15T16:06:46Z</time>
      </trkpt>
      <trkpt lat="43.61261" lon="3.73722">
        <ele>137.59</ele>
        <time>2015-11-15T16:06:47Z</time>
      </trkpt>
      <trkpt lat="43.61263" lon="3.73725">
        <ele>136.42</ele>
        <time>2015-11-15T16:06:50Z</time>
      </trkpt>
      <trkpt lat="43.61266" lon="3.73726">
        <ele>136.91</ele>
        <time>2015-11-15T16:06:52Z</time>
      </trkpt>
      <trkpt lat="43.61283" lon="3.73725">
        <ele>135.47</ele>
        <time>2015-11-15T16:07:05Z</time>
      </trkpt>
      <trkpt lat="43.61293" lon="3.7372">
        <ele>134.2</ele>
        <time>2015-11-15T16:07:17Z</time>
      </trkpt>
      <trkpt lat="43.61302" lon="3.73713">
        <ele>132.89</ele>
        <time>2015-11-15T16:07:25Z</time>
      </trkpt>
      <trkpt lat="43.61312" lon="3.73713">
        <ele>131.96</ele>
        <time>2015-11-15T16:07:32Z</time>
      </trkpt>
      <trkpt lat="43.61316" lon="3.73711">
        <ele>132.2</ele>
        <time>2015-11-15T16:07:36Z</time>
      </trkpt>
      <trkpt lat="43.61331" lon="3.73707">
        <ele>130.83</ele>
        <time>2015-11-15T16:07:51Z</time>
      </trkpt>
      <trkpt lat="43.61333" lon="3.73707">
        <ele>130.83</ele>
        <time>2015-11-15T16:07:53Z</time>
      </trkpt>
      <trkpt lat="43.61345" lon="3.73706">
        <ele>129.73</ele>
        <time>2015-11-15T16:08:02Z</time>
      </trkpt>
      <trkpt lat="43.6136" lon="3.73708">
        <ele>129.09</ele>
        <time>2015-11-15T16:08:14Z</time>
      </trkpt>
      <trkpt lat="43.61375" lon="3.73703">
        <ele>127.54</ele>
        <time>2015-11-15T16:08:28Z</time>
      </trkpt>
      <trkpt lat="43.61393" lon="3.73694">
        <ele>125.22</ele>
        <time>2015-11-15T16:08:46Z</time>
      </trkpt>
      <trkpt lat="43.61406" lon="3.73688">
        <ele>123.38</ele>
        <time>2015-11-15T16:09:01Z</time>
      </trkpt>
      <trkpt lat="43.61416" lon="3.73682">
        <ele>122.53</ele>
        <time>2015-11-15T16:09:11Z</time>
      </trkpt>
      <trkpt lat="43.61423" lon="3.73679">
        <ele>121.57</ele>
        <time>2015-11-15T16:09:17Z</time>
      </trkpt>
      <trkpt lat="43.61427" lon="3.73676">
        <ele>120.77</ele>
        <time>2015-11-15T16:09:23Z</time>
      </trkpt>
      <trkpt lat="43.61437" lon="3.73665">
        <ele>119.09</ele>
        <time>2015-11-15T16:09:36Z</time>
      </trkpt>
      <trkpt lat="43.61441" lon="3.73663">
        <ele>118.33</ele>
        <time>2015-11-15T16:09:56Z</time>
      </trkpt>
      <trkpt lat="43.61446" lon="3.73665">
        <ele>117.14</ele>
        <time>2015-11-15T16:10:03Z</time>
      </trkpt>
      <trkpt lat="43.61456" lon="3.7368">
        <ele>115.89</ele>
        <time>2015-11-15T16:10:14Z</time>
      </trkpt>
      <trkpt lat="43.61464" lon="3.73692">
        <ele>114.6</ele>
        <time>2015-11-15T16:10:24Z</time>
      </trkpt>
      <trkpt lat="43.61465" lon="3.73696">
        <ele>114.51</ele>
        <time>2015-11-15T16:10:27Z</time>
      </trkpt>
      <trkpt lat="43.61467" lon="3.73702">
        <ele>114.71</ele>
        <time>2015-11-15T16:10:31Z</time>
      </trkpt>
      <trkpt lat="43.61469" lon="3.73713">
        <ele>114.09</ele>
        <time>2015-11-15T16:10:45Z</time>
      </trkpt>
      <trkpt lat="43.61468" lon="3.73702">
        <ele>114.09</ele>
        <time>2015-11-15T16:11:04Z</time>
      </trkpt>
      <trkpt lat="43.61468" lon="3.73706">
        <ele>114.22</ele>
        <time>2015-11-15T16:11:08Z</time>
      </trkpt>
      <trkpt lat="43.61472" lon="3.73745">
        <ele>114.03</ele>
        <time>2015-11-15T16:11:29Z</time>
      </trkpt>
      <trkpt lat="43.61472" lon="3.73753">
        <ele>113.59</ele>
        <time>2015-11-15T16:11:34Z</time>
      </trkpt>
      <trkpt lat="43.61474" lon="3.73774">
        <ele>112.21</ele>
        <time>2015-11-15T16:11:46Z</time>
      </trkpt>
      <trkpt lat="43.61477" lon="3.73794">
        <ele>110.59</ele>
        <time>2015-11-15T16:11:57Z</time>
      </trkpt>
      <trkpt lat="43.61483" lon="3.73808">
        <ele>110.29</ele>
        <time>2015-11-15T16:12:06Z</time>
      </trkpt>
      <trkpt lat="43.61499" lon="3.73819">
        <ele>108.52</ele>
        <time>2015-11-15T16:12:19Z</time>
      </trkpt>
      <trkpt lat="43.61511" lon="3.73829">
        <ele>106.93</ele>
        <time>2015-11-15T16:12:31Z</time>
      </trkpt>
      <trkpt lat="43.6153" lon="3.73841">
        <ele>106.6</ele>
        <time>2015-11-15T16:12:50Z</time>
      </trkpt>
      <trkpt lat="43.61533" lon="3.73849">
        <ele>106.44</ele>
        <time>2015-11-15T16:13:06Z</time>
      </trkpt>
      <trkpt lat="43.61535" lon="3.7387">
        <ele>106.59</ele>
        <time>2015-11-15T16:13:20Z</time>
      </trkpt>
      <trkpt lat="43.61535" lon="3.73894">
        <ele>106.12</ele>
        <time>2015-11-15T16:13:34Z</time>
      </trkpt>
      <trkpt lat="43.61539" lon="3.7393">
        <ele>106.12</ele>
        <time>2015-11-15T16:13:55Z</time>
      </trkpt>
      <trkpt lat="43.61541" lon="3.73937">
        <ele>106.21</ele>
        <time>2015-11-15T16:13:58Z</time>
      </trkpt>
      <trkpt lat="43.61547" lon="3.73966">
        <ele>106.35</ele>
        <time>2015-11-15T16:14:13Z</time>
      </trkpt>
      <trkpt lat="43.61548" lon="3.73981">
        <ele>107.08</ele>
        <time>2015-11-15T16:14:21Z</time>
      </trkpt>
      <trkpt lat="43.61551" lon="3.74">
        <ele>106.64</ele>
        <time>2015-11-15T16:14:32Z</time>
      </trkpt>
      <trkpt lat="43.61558" lon="3.74026">
        <ele>107.47</ele>
        <time>2015-11-15T16:14:47Z</time>
      </trkpt>
      <trkpt lat="43.6156" lon="3.7403">
        <ele>107.84</ele>
        <time>2015-11-15T16:14:49Z</time>
      </trkpt>
      <trkpt lat="43.61562" lon="3.74036">
        <ele>107.65</ele>
        <time>2015-11-15T16:14:53Z</time>
      </trkpt>
      <trkpt lat="43.61573" lon="3.74077">
        <ele>106.48</ele>
        <time>2015-11-15T16:15:16Z</time>
      </trkpt>
      <trkpt lat="43.61578" lon="3.74094">
        <ele>106.17</ele>
        <time>2015-11-15T16:15:26Z</time>
      </trkpt>
      <trkpt lat="43.6158" lon="3.74102">
        <ele>106.21</ele>
        <time>2015-11-15T16:15:30Z</time>
      </trkpt>
      <trkpt lat="43.61587" lon="3.74121">
        <ele>105.87</ele>
        <time>2015-11-15T16:15:41Z</time>
      </trkpt>
      <trkpt lat="43.61591" lon="3.74125">
        <ele>106.55</ele>
        <time>2015-11-15T16:15:53Z</time>
      </trkpt>
      <trkpt lat="43.6159" lon="3.74123">
        <ele>107.2</ele>
        <time>2015-11-15T16:16:12Z</time>
      </trkpt>
      <trkpt lat="43.61589" lon="3.74122">
        <ele>106.73</ele>
        <time>2015-11-15T16:16:37Z</time>
      </trkpt>
      <trkpt lat="43.61601" lon="3.74122">
        <ele>108.36</ele>
        <time>2015-11-15T16:16:56Z</time>
      </trkpt>
      <trkpt lat="43.6161" lon="3.74116">
        <ele>109.74</ele>
        <time>2015-11-15T16:17:06Z</time>
      </trkpt>
      <trkpt lat="43.61626" lon="3.74096">
        <ele>111.55</ele>
        <time>2015-11-15T16:17:26Z</time>
      </trkpt>
      <trkpt lat="43.61641" lon="3.74085">
        <ele>113.44</ele>
        <time>2015-11-15T16:17:37Z</time>
      </trkpt>
      <trkpt lat="43.61651" lon="3.74077">
        <ele>114.21</ele>
        <time>2015-11-15T16:17:47Z</time>
      </trkpt>
      <trkpt lat="43.61663" lon="3.74065">
        <ele>115.89</ele>
        <time>2015-11-15T16:18:00Z</time>
      </trkpt>
      <trkpt lat="43.61676" lon="3.74058">
        <ele>117.4</ele>
        <time>2015-11-15T16:18:13Z</time>
      </trkpt>
      <trkpt lat="43.61682" lon="3.74054">
        <ele>119.09</ele>
        <time>2015-11-15T16:18:21Z</time>
      </trkpt>
      <trkpt lat="43.61701" lon="3.74036">
        <ele>121.12</ele>
        <time>2015-11-15T16:18:40Z</time>
      </trkpt>
      <trkpt lat="43.61709" lon="3.7403">
        <ele>121.61</ele>
        <time>2015-11-15T16:18:49Z</time>
      </trkpt>
      <trkpt lat="43.6172" lon="3.74019">
        <ele>123.17</ele>
        <time>2015-11-15T16:19:02Z</time>
      </trkpt>
      <trkpt lat="43.61722" lon="3.74017">
        <ele>123.55</ele>
        <time>2015-11-15T16:19:04Z</time>
      </trkpt>
      <trkpt lat="43.61746" lon="3.74011">
        <ele>126.22</ele>
        <time>2015-11-15T16:19:24Z</time>
      </trkpt>
      <trkpt lat="43.61765" lon="3.7402">
        <ele>127</ele>
        <time>2015-11-15T16:19:40Z</time>
      </trkpt>
      <trkpt lat="43.61777" lon="3.74029">
        <ele>127.57</ele>
        <time>2015-11-15T16:19:53Z</time>
      </trkpt>
      <trkpt lat="43.61796" lon="3.74047">
        <ele>129.83</ele>
        <time>2015-11-15T16:20:15Z</time>
      </trkpt>
      <trkpt lat="43.61813" lon="3.74063">
        <ele>132.12</ele>
        <time>2015-11-15T16:20:33Z</time>
      </trkpt>
      <trkpt lat="43.6182" lon="3.74072">
        <ele>132.54</ele>
        <time>2015-11-15T16:20:41Z</time>
      </trkpt>
      <trkpt lat="43.6182" lon="3.74076">
        <ele>132.93</ele>
        <time>2015-11-15T16:20:43Z</time>
      </trkpt>
      <trkpt lat="43.61833" lon="3.74091">
        <ele>134.61</ele>
        <time>2015-11-15T16:21:00Z</time>
      </trkpt>
      <trkpt lat="43.61837" lon="3.74096">
        <ele>135.2</ele>
        <time>2015-11-15T16:21:05Z</time>
      </trkpt>
      <trkpt lat="43.6185" lon="3.74111">
        <ele>137.11</ele>
        <time>2015-11-15T16:21:20Z</time>
      </trkpt>
      <trkpt lat="43.61878" lon="3.74119">
        <ele>138.61</ele>
        <time>2015-11-15T16:21:46Z</time>
      </trkpt>
      <trkpt lat="43.61881" lon="3.74118">
        <ele>138.64</ele>
        <time>2015-11-15T16:22:01Z</time>
      </trkpt>
    </trkseg>
  </trk>
</gpx>